<?xml version="1.0" encoding="UTF-8" standalone="no" ?>
<gpx xmlns="http://www.topografix.com/GPX/1/1" xmlns:xsi="http://www.w3.org/2001/XMLSchema-instance" xsi:schemaLocation="http://www.topografix.com/GPX/1/1 http://www.topografix.com/GPX/1/1/gpx.xsd" version="1.1" creator="VisuGPX - https://www.visugpx.com">
  <metadata>
    <name>Tour De Tuoux à Aspremont</name>
    <desc><![CDATA[Tour de Tuoux à partir d'Aspremont et retour par la cabane Les Fanges et St Pierre d'Argençon.]]></desc>
  </metadata>
  <trk>
    <name><![CDATA[VTT-Tour de Tuoux18]]></name>
    <trkseg>
      <trkpt lat="44.49364" lon="5.72879">
        <ele>709.98</ele>
        <time>2018-11-27T08:48:46Z</time>
      </trkpt>
      <trkpt lat="44.49365" lon="5.72888">
        <ele>627.27</ele>
        <time>2018-11-27T08:48:47Z</time>
      </trkpt>
      <trkpt lat="44.49365" lon="5.72887">
        <ele>627.27</ele>
        <time>2018-11-27T08:48:48Z</time>
      </trkpt>
      <trkpt lat="44.49369" lon="5.72914">
        <ele>628.76</ele>
        <time>2018-11-27T08:49:19Z</time>
      </trkpt>
      <trkpt lat="44.49356" lon="5.72892">
        <ele>630.85</ele>
        <time>2018-11-27T08:49:49Z</time>
      </trkpt>
      <trkpt lat="44.49356" lon="5.72897">
        <ele>631.79</ele>
        <time>2018-11-27T08:50:23Z</time>
      </trkpt>
      <trkpt lat="44.49352" lon="5.72892">
        <ele>633.31</ele>
        <time>2018-11-27T08:50:57Z</time>
      </trkpt>
      <trkpt lat="44.49353" lon="5.72893">
        <ele>633.92</ele>
        <time>2018-11-27T08:51:23Z</time>
      </trkpt>
      <trkpt lat="44.49356" lon="5.72891">
        <ele>633.87</ele>
        <time>2018-11-27T08:51:53Z</time>
      </trkpt>
      <trkpt lat="44.49357" lon="5.72889">
        <ele>636.59</ele>
        <time>2018-11-27T08:52:15Z</time>
      </trkpt>
      <trkpt lat="44.49361" lon="5.72886">
        <ele>637.1</ele>
        <time>2018-11-27T08:52:24Z</time>
      </trkpt>
      <trkpt lat="44.49363" lon="5.72879">
        <ele>638.15</ele>
        <time>2018-11-27T08:52:28Z</time>
      </trkpt>
      <trkpt lat="44.49369" lon="5.72844">
        <ele>638.51</ele>
        <time>2018-11-27T08:52:42Z</time>
      </trkpt>
      <trkpt lat="44.49378" lon="5.72812">
        <ele>640.12</ele>
        <time>2018-11-27T08:52:54Z</time>
      </trkpt>
      <trkpt lat="44.49387" lon="5.72766">
        <ele>642.11</ele>
        <time>2018-11-27T08:53:10Z</time>
      </trkpt>
      <trkpt lat="44.49403" lon="5.72717">
        <ele>644.97</ele>
        <time>2018-11-27T08:53:28Z</time>
      </trkpt>
      <trkpt lat="44.49422" lon="5.72681">
        <ele>647.12</ele>
        <time>2018-11-27T08:53:43Z</time>
      </trkpt>
      <trkpt lat="44.49453" lon="5.72644">
        <ele>649.63</ele>
        <time>2018-11-27T08:53:59Z</time>
      </trkpt>
      <trkpt lat="44.49483" lon="5.72598">
        <ele>651.98</ele>
        <time>2018-11-27T08:54:17Z</time>
      </trkpt>
      <trkpt lat="44.49501" lon="5.72535">
        <ele>654.95</ele>
        <time>2018-11-27T08:54:37Z</time>
      </trkpt>
      <trkpt lat="44.49505" lon="5.72483">
        <ele>655.31</ele>
        <time>2018-11-27T08:54:53Z</time>
      </trkpt>
      <trkpt lat="44.49506" lon="5.72443">
        <ele>654.65</ele>
        <time>2018-11-27T08:55:07Z</time>
      </trkpt>
      <trkpt lat="44.49505" lon="5.72443">
        <ele>655.3</ele>
        <time>2018-11-27T08:55:21Z</time>
      </trkpt>
      <trkpt lat="44.49506" lon="5.72436">
        <ele>656.71</ele>
        <time>2018-11-27T08:56:02Z</time>
      </trkpt>
      <trkpt lat="44.49502" lon="5.72398">
        <ele>657.14</ele>
        <time>2018-11-27T08:56:13Z</time>
      </trkpt>
      <trkpt lat="44.49493" lon="5.72359">
        <ele>654.1</ele>
        <time>2018-11-27T08:56:23Z</time>
      </trkpt>
      <trkpt lat="44.49493" lon="5.72345">
        <ele>652.94</ele>
        <time>2018-11-27T08:56:27Z</time>
      </trkpt>
      <trkpt lat="44.49489" lon="5.72317">
        <ele>649.4</ele>
        <time>2018-11-27T08:56:35Z</time>
      </trkpt>
      <trkpt lat="44.49484" lon="5.72294">
        <ele>648.37</ele>
        <time>2018-11-27T08:56:39Z</time>
      </trkpt>
      <trkpt lat="44.49475" lon="5.72209">
        <ele>647.97</ele>
        <time>2018-11-27T08:56:54Z</time>
      </trkpt>
      <trkpt lat="44.49474" lon="5.72181">
        <ele>648.17</ele>
        <time>2018-11-27T08:56:59Z</time>
      </trkpt>
      <trkpt lat="44.49495" lon="5.72142">
        <ele>648.05</ele>
        <time>2018-11-27T08:57:12Z</time>
      </trkpt>
      <trkpt lat="44.49523" lon="5.72103">
        <ele>647.41</ele>
        <time>2018-11-27T08:57:28Z</time>
      </trkpt>
      <trkpt lat="44.49551" lon="5.72062">
        <ele>650.01</ele>
        <time>2018-11-27T08:57:43Z</time>
      </trkpt>
      <trkpt lat="44.49579" lon="5.72026">
        <ele>650.32</ele>
        <time>2018-11-27T08:57:57Z</time>
      </trkpt>
      <trkpt lat="44.49582" lon="5.71977">
        <ele>651.83</ele>
        <time>2018-11-27T08:58:10Z</time>
      </trkpt>
      <trkpt lat="44.49588" lon="5.71917">
        <ele>652.98</ele>
        <time>2018-11-27T08:58:25Z</time>
      </trkpt>
      <trkpt lat="44.4959" lon="5.71856">
        <ele>655.24</ele>
        <time>2018-11-27T08:58:40Z</time>
      </trkpt>
      <trkpt lat="44.49595" lon="5.7178">
        <ele>655.48</ele>
        <time>2018-11-27T08:58:58Z</time>
      </trkpt>
      <trkpt lat="44.49609" lon="5.71709">
        <ele>658.2</ele>
        <time>2018-11-27T08:59:16Z</time>
      </trkpt>
      <trkpt lat="44.49643" lon="5.71686">
        <ele>659.64</ele>
        <time>2018-11-27T08:59:31Z</time>
      </trkpt>
      <trkpt lat="44.49663" lon="5.71667">
        <ele>662.66</ele>
        <time>2018-11-27T08:59:42Z</time>
      </trkpt>
      <trkpt lat="44.49694" lon="5.71639">
        <ele>665.05</ele>
        <time>2018-11-27T08:59:59Z</time>
      </trkpt>
      <trkpt lat="44.49726" lon="5.71613">
        <ele>666.08</ele>
        <time>2018-11-27T09:00:16Z</time>
      </trkpt>
      <trkpt lat="44.49744" lon="5.71601">
        <ele>668.64</ele>
        <time>2018-11-27T09:00:31Z</time>
      </trkpt>
      <trkpt lat="44.49744" lon="5.71596">
        <ele>670.13</ele>
        <time>2018-11-27T09:00:49Z</time>
      </trkpt>
      <trkpt lat="44.49744" lon="5.71595">
        <ele>670.13</ele>
        <time>2018-11-27T09:00:50Z</time>
      </trkpt>
      <trkpt lat="44.49744" lon="5.71591">
        <ele>670.12</ele>
        <time>2018-11-27T09:00:52Z</time>
      </trkpt>
      <trkpt lat="44.49744" lon="5.71589">
        <ele>670.11</ele>
        <time>2018-11-27T09:00:53Z</time>
      </trkpt>
      <trkpt lat="44.4974" lon="5.71551">
        <ele>670.91</ele>
        <time>2018-11-27T09:01:06Z</time>
      </trkpt>
      <trkpt lat="44.4975" lon="5.715">
        <ele>672.37</ele>
        <time>2018-11-27T09:01:24Z</time>
      </trkpt>
      <trkpt lat="44.49753" lon="5.71457">
        <ele>674.81</ele>
        <time>2018-11-27T09:01:39Z</time>
      </trkpt>
      <trkpt lat="44.49758" lon="5.71402">
        <ele>676.36</ele>
        <time>2018-11-27T09:01:55Z</time>
      </trkpt>
      <trkpt lat="44.49752" lon="5.71345">
        <ele>677.43</ele>
        <time>2018-11-27T09:02:12Z</time>
      </trkpt>
      <trkpt lat="44.49747" lon="5.71287">
        <ele>679.61</ele>
        <time>2018-11-27T09:02:30Z</time>
      </trkpt>
      <trkpt lat="44.49738" lon="5.71237">
        <ele>680.1</ele>
        <time>2018-11-27T09:02:44Z</time>
      </trkpt>
      <trkpt lat="44.49745" lon="5.7117">
        <ele>682.14</ele>
        <time>2018-11-27T09:03:03Z</time>
      </trkpt>
      <trkpt lat="44.49743" lon="5.71093">
        <ele>682.92</ele>
        <time>2018-11-27T09:03:24Z</time>
      </trkpt>
      <trkpt lat="44.4973" lon="5.71068">
        <ele>681.85</ele>
        <time>2018-11-27T09:03:36Z</time>
      </trkpt>
      <trkpt lat="44.49703" lon="5.71045">
        <ele>682.45</ele>
        <time>2018-11-27T09:03:53Z</time>
      </trkpt>
      <trkpt lat="44.49681" lon="5.71015">
        <ele>684.86</ele>
        <time>2018-11-27T09:04:10Z</time>
      </trkpt>
      <trkpt lat="44.49677" lon="5.70982">
        <ele>687.3</ele>
        <time>2018-11-27T09:04:26Z</time>
      </trkpt>
      <trkpt lat="44.49677" lon="5.7098">
        <ele>688.9</ele>
        <time>2018-11-27T09:04:53Z</time>
      </trkpt>
      <trkpt lat="44.49674" lon="5.70973">
        <ele>689.22</ele>
        <time>2018-11-27T09:04:58Z</time>
      </trkpt>
      <trkpt lat="44.49653" lon="5.70941">
        <ele>691.32</ele>
        <time>2018-11-27T09:05:15Z</time>
      </trkpt>
      <trkpt lat="44.49652" lon="5.70915">
        <ele>694.44</ele>
        <time>2018-11-27T09:05:24Z</time>
      </trkpt>
      <trkpt lat="44.49666" lon="5.70876">
        <ele>695.6</ele>
        <time>2018-11-27T09:05:40Z</time>
      </trkpt>
      <trkpt lat="44.49683" lon="5.70853">
        <ele>698.6</ele>
        <time>2018-11-27T09:05:53Z</time>
      </trkpt>
      <trkpt lat="44.497" lon="5.70825">
        <ele>701.71</ele>
        <time>2018-11-27T09:06:06Z</time>
      </trkpt>
      <trkpt lat="44.49713" lon="5.70784">
        <ele>704.69</ele>
        <time>2018-11-27T09:06:24Z</time>
      </trkpt>
      <trkpt lat="44.49727" lon="5.70728">
        <ele>705.82</ele>
        <time>2018-11-27T09:06:45Z</time>
      </trkpt>
      <trkpt lat="44.49736" lon="5.7068">
        <ele>704.27</ele>
        <time>2018-11-27T09:07:03Z</time>
      </trkpt>
      <trkpt lat="44.4974" lon="5.70649">
        <ele>707.29</ele>
        <time>2018-11-27T09:07:16Z</time>
      </trkpt>
      <trkpt lat="44.49745" lon="5.70627">
        <ele>710.14</ele>
        <time>2018-11-27T09:07:32Z</time>
      </trkpt>
      <trkpt lat="44.49745" lon="5.70627">
        <ele>710.33</ele>
        <time>2018-11-27T09:07:33Z</time>
      </trkpt>
      <trkpt lat="44.49749" lon="5.70629">
        <ele>711.3</ele>
        <time>2018-11-27T09:07:37Z</time>
      </trkpt>
      <trkpt lat="44.4975" lon="5.70625">
        <ele>749.37</ele>
        <time>2018-11-27T10:09:12Z</time>
      </trkpt>
      <trkpt lat="44.49729" lon="5.70618">
        <ele>750.83</ele>
        <time>2018-11-27T10:09:25Z</time>
      </trkpt>
      <trkpt lat="44.49697" lon="5.70594">
        <ele>751.51</ele>
        <time>2018-11-27T10:09:43Z</time>
      </trkpt>
      <trkpt lat="44.49657" lon="5.70575">
        <ele>751.79</ele>
        <time>2018-11-27T10:10:02Z</time>
      </trkpt>
      <trkpt lat="44.49616" lon="5.70566">
        <ele>753.28</ele>
        <time>2018-11-27T10:10:20Z</time>
      </trkpt>
      <trkpt lat="44.49579" lon="5.70543">
        <ele>755.49</ele>
        <time>2018-11-27T10:10:37Z</time>
      </trkpt>
      <trkpt lat="44.49553" lon="5.70516">
        <ele>756.77</ele>
        <time>2018-11-27T10:10:51Z</time>
      </trkpt>
      <trkpt lat="44.49547" lon="5.70508">
        <ele>757.74</ele>
        <time>2018-11-27T10:10:56Z</time>
      </trkpt>
      <trkpt lat="44.49546" lon="5.70506">
        <ele>757.93</ele>
        <time>2018-11-27T10:10:57Z</time>
      </trkpt>
      <trkpt lat="44.49546" lon="5.70504">
        <ele>758.09</ele>
        <time>2018-11-27T10:10:58Z</time>
      </trkpt>
      <trkpt lat="44.49547" lon="5.70502">
        <ele>758.24</ele>
        <time>2018-11-27T10:10:59Z</time>
      </trkpt>
      <trkpt lat="44.49551" lon="5.70501">
        <ele>758.67</ele>
        <time>2018-11-27T10:11:02Z</time>
      </trkpt>
      <trkpt lat="44.49577" lon="5.70493">
        <ele>761.1</ele>
        <time>2018-11-27T10:11:20Z</time>
      </trkpt>
      <trkpt lat="44.49584" lon="5.70489">
        <ele>763.06</ele>
        <time>2018-11-27T10:11:26Z</time>
      </trkpt>
      <trkpt lat="44.49588" lon="5.70484">
        <ele>764.34</ele>
        <time>2018-11-27T10:11:30Z</time>
      </trkpt>
      <trkpt lat="44.49602" lon="5.70485">
        <ele>767.77</ele>
        <time>2018-11-27T10:11:41Z</time>
      </trkpt>
      <trkpt lat="44.49604" lon="5.70486">
        <ele>768.53</ele>
        <time>2018-11-27T10:11:44Z</time>
      </trkpt>
      <trkpt lat="44.49612" lon="5.70486">
        <ele>769.21</ele>
        <time>2018-11-27T10:11:59Z</time>
      </trkpt>
      <trkpt lat="44.49614" lon="5.70483">
        <ele>770.22</ele>
        <time>2018-11-27T10:12:17Z</time>
      </trkpt>
      <trkpt lat="44.49612" lon="5.70478">
        <ele>772.32</ele>
        <time>2018-11-27T10:13:20Z</time>
      </trkpt>
      <trkpt lat="44.49613" lon="5.7048">
        <ele>772.35</ele>
        <time>2018-11-27T10:14:36Z</time>
      </trkpt>
      <trkpt lat="44.49616" lon="5.70482">
        <ele>772.32</ele>
        <time>2018-11-27T10:16:14Z</time>
      </trkpt>
      <trkpt lat="44.49614" lon="5.70482">
        <ele>775.49</ele>
        <time>2018-11-27T10:16:32Z</time>
      </trkpt>
      <trkpt lat="44.4961" lon="5.70485">
        <ele>773.89</ele>
        <time>2018-11-27T10:16:43Z</time>
      </trkpt>
      <trkpt lat="44.49596" lon="5.70489">
        <ele>770.77</ele>
        <time>2018-11-27T10:16:57Z</time>
      </trkpt>
      <trkpt lat="44.49577" lon="5.70494">
        <ele>768.89</ele>
        <time>2018-11-27T10:17:08Z</time>
      </trkpt>
      <trkpt lat="44.49552" lon="5.70502">
        <ele>765.49</ele>
        <time>2018-11-27T10:17:16Z</time>
      </trkpt>
      <trkpt lat="44.49541" lon="5.70503">
        <ele>763.69</ele>
        <time>2018-11-27T10:17:20Z</time>
      </trkpt>
      <trkpt lat="44.49538" lon="5.70501">
        <ele>762.85</ele>
        <time>2018-11-27T10:17:21Z</time>
      </trkpt>
      <trkpt lat="44.49536" lon="5.70498">
        <ele>762.51</ele>
        <time>2018-11-27T10:17:22Z</time>
      </trkpt>
      <trkpt lat="44.49535" lon="5.70495">
        <ele>762.23</ele>
        <time>2018-11-27T10:17:23Z</time>
      </trkpt>
      <trkpt lat="44.49534" lon="5.70493">
        <ele>762</ele>
        <time>2018-11-27T10:17:24Z</time>
      </trkpt>
      <trkpt lat="44.49533" lon="5.70491">
        <ele>761.84</ele>
        <time>2018-11-27T10:17:25Z</time>
      </trkpt>
      <trkpt lat="44.49532" lon="5.70491">
        <ele>761.96</ele>
        <time>2018-11-27T10:17:35Z</time>
      </trkpt>
      <trkpt lat="44.49526" lon="5.70508">
        <ele>761.25</ele>
        <time>2018-11-27T10:17:44Z</time>
      </trkpt>
      <trkpt lat="44.49486" lon="5.70561">
        <ele>759.88</ele>
        <time>2018-11-27T10:17:59Z</time>
      </trkpt>
      <trkpt lat="44.49462" lon="5.70639">
        <ele>757.38</ele>
        <time>2018-11-27T10:18:12Z</time>
      </trkpt>
      <trkpt lat="44.49459" lon="5.70645">
        <ele>756.92</ele>
        <time>2018-11-27T10:18:13Z</time>
      </trkpt>
      <trkpt lat="44.49456" lon="5.7065">
        <ele>756.53</ele>
        <time>2018-11-27T10:18:14Z</time>
      </trkpt>
      <trkpt lat="44.49453" lon="5.70654">
        <ele>756.15</ele>
        <time>2018-11-27T10:18:15Z</time>
      </trkpt>
      <trkpt lat="44.49449" lon="5.70657">
        <ele>755.76</ele>
        <time>2018-11-27T10:18:16Z</time>
      </trkpt>
      <trkpt lat="44.49443" lon="5.70659">
        <ele>755.38</ele>
        <time>2018-11-27T10:18:17Z</time>
      </trkpt>
      <trkpt lat="44.49437" lon="5.70661">
        <ele>755.02</ele>
        <time>2018-11-27T10:18:18Z</time>
      </trkpt>
      <trkpt lat="44.4942" lon="5.70666">
        <ele>754.09</ele>
        <time>2018-11-27T10:18:21Z</time>
      </trkpt>
      <trkpt lat="44.49415" lon="5.70669">
        <ele>753.78</ele>
        <time>2018-11-27T10:18:22Z</time>
      </trkpt>
      <trkpt lat="44.4941" lon="5.70673">
        <ele>753.52</ele>
        <time>2018-11-27T10:18:23Z</time>
      </trkpt>
      <trkpt lat="44.49406" lon="5.70678">
        <ele>753.36</ele>
        <time>2018-11-27T10:18:24Z</time>
      </trkpt>
      <trkpt lat="44.49403" lon="5.70683">
        <ele>753.24</ele>
        <time>2018-11-27T10:18:25Z</time>
      </trkpt>
      <trkpt lat="44.49399" lon="5.70688">
        <ele>753.16</ele>
        <time>2018-11-27T10:18:26Z</time>
      </trkpt>
      <trkpt lat="44.49385" lon="5.70713">
        <ele>753.33</ele>
        <time>2018-11-27T10:18:31Z</time>
      </trkpt>
      <trkpt lat="44.49382" lon="5.70718">
        <ele>753.38</ele>
        <time>2018-11-27T10:18:32Z</time>
      </trkpt>
      <trkpt lat="44.49378" lon="5.70722">
        <ele>753.42</ele>
        <time>2018-11-27T10:18:33Z</time>
      </trkpt>
      <trkpt lat="44.49373" lon="5.70727">
        <ele>753.37</ele>
        <time>2018-11-27T10:18:34Z</time>
      </trkpt>
      <trkpt lat="44.49368" lon="5.7073">
        <ele>753.17</ele>
        <time>2018-11-27T10:18:35Z</time>
      </trkpt>
      <trkpt lat="44.49363" lon="5.70731">
        <ele>753.07</ele>
        <time>2018-11-27T10:18:36Z</time>
      </trkpt>
      <trkpt lat="44.49357" lon="5.70732">
        <ele>752.96</ele>
        <time>2018-11-27T10:18:37Z</time>
      </trkpt>
      <trkpt lat="44.49352" lon="5.70731">
        <ele>752.85</ele>
        <time>2018-11-27T10:18:38Z</time>
      </trkpt>
      <trkpt lat="44.49347" lon="5.7073">
        <ele>752.71</ele>
        <time>2018-11-27T10:18:39Z</time>
      </trkpt>
      <trkpt lat="44.49342" lon="5.70728">
        <ele>752.54</ele>
        <time>2018-11-27T10:18:40Z</time>
      </trkpt>
      <trkpt lat="44.4932" lon="5.70712">
        <ele>751.76</ele>
        <time>2018-11-27T10:18:47Z</time>
      </trkpt>
      <trkpt lat="44.49321" lon="5.70708">
        <ele>751.7</ele>
        <time>2018-11-27T10:18:48Z</time>
      </trkpt>
      <trkpt lat="44.49322" lon="5.70706">
        <ele>751.64</ele>
        <time>2018-11-27T10:18:49Z</time>
      </trkpt>
      <trkpt lat="44.49322" lon="5.70703">
        <ele>751.55</ele>
        <time>2018-11-27T10:18:50Z</time>
      </trkpt>
      <trkpt lat="44.49323" lon="5.70701">
        <ele>751.48</ele>
        <time>2018-11-27T10:18:51Z</time>
      </trkpt>
      <trkpt lat="44.49332" lon="5.70654">
        <ele>752.37</ele>
        <time>2018-11-27T10:19:10Z</time>
      </trkpt>
      <trkpt lat="44.49334" lon="5.70624">
        <ele>754.04</ele>
        <time>2018-11-27T10:19:25Z</time>
      </trkpt>
      <trkpt lat="44.49338" lon="5.70587">
        <ele>755.21</ele>
        <time>2018-11-27T10:19:41Z</time>
      </trkpt>
      <trkpt lat="44.49338" lon="5.70534">
        <ele>757.97</ele>
        <time>2018-11-27T10:20:02Z</time>
      </trkpt>
      <trkpt lat="44.49325" lon="5.70493">
        <ele>760.05</ele>
        <time>2018-11-27T10:20:18Z</time>
      </trkpt>
      <trkpt lat="44.4931" lon="5.70448">
        <ele>762.65</ele>
        <time>2018-11-27T10:20:37Z</time>
      </trkpt>
      <trkpt lat="44.49317" lon="5.704">
        <ele>764.54</ele>
        <time>2018-11-27T10:20:56Z</time>
      </trkpt>
      <trkpt lat="44.49322" lon="5.7036">
        <ele>767.66</ele>
        <time>2018-11-27T10:21:12Z</time>
      </trkpt>
      <trkpt lat="44.49328" lon="5.70312">
        <ele>769.9</ele>
        <time>2018-11-27T10:21:30Z</time>
      </trkpt>
      <trkpt lat="44.49334" lon="5.70261">
        <ele>772.9</ele>
        <time>2018-11-27T10:21:51Z</time>
      </trkpt>
      <trkpt lat="44.49336" lon="5.70231">
        <ele>775.95</ele>
        <time>2018-11-27T10:22:03Z</time>
      </trkpt>
      <trkpt lat="44.49337" lon="5.70173">
        <ele>778.02</ele>
        <time>2018-11-27T10:22:27Z</time>
      </trkpt>
      <trkpt lat="44.49336" lon="5.70119">
        <ele>780.86</ele>
        <time>2018-11-27T10:22:48Z</time>
      </trkpt>
      <trkpt lat="44.49337" lon="5.70075">
        <ele>783.91</ele>
        <time>2018-11-27T10:23:05Z</time>
      </trkpt>
      <trkpt lat="44.49333" lon="5.70023">
        <ele>786.95</ele>
        <time>2018-11-27T10:23:25Z</time>
      </trkpt>
      <trkpt lat="44.49327" lon="5.69962">
        <ele>788.72</ele>
        <time>2018-11-27T10:23:47Z</time>
      </trkpt>
      <trkpt lat="44.49304" lon="5.69928">
        <ele>791.31</ele>
        <time>2018-11-27T10:24:04Z</time>
      </trkpt>
      <trkpt lat="44.49292" lon="5.69919">
        <ele>793.6</ele>
        <time>2018-11-27T10:24:18Z</time>
      </trkpt>
      <trkpt lat="44.49289" lon="5.69918">
        <ele>793.69</ele>
        <time>2018-11-27T10:24:52Z</time>
      </trkpt>
      <trkpt lat="44.49287" lon="5.69918">
        <ele>793.72</ele>
        <time>2018-11-27T10:24:53Z</time>
      </trkpt>
      <trkpt lat="44.49285" lon="5.69918">
        <ele>793.71</ele>
        <time>2018-11-27T10:24:54Z</time>
      </trkpt>
      <trkpt lat="44.49283" lon="5.69919">
        <ele>793.71</ele>
        <time>2018-11-27T10:24:55Z</time>
      </trkpt>
      <trkpt lat="44.4928" lon="5.6992">
        <ele>793.65</ele>
        <time>2018-11-27T10:24:56Z</time>
      </trkpt>
      <trkpt lat="44.49237" lon="5.69924">
        <ele>791.62</ele>
        <time>2018-11-27T10:25:11Z</time>
      </trkpt>
      <trkpt lat="44.49185" lon="5.6992">
        <ele>791.13</ele>
        <time>2018-11-27T10:25:27Z</time>
      </trkpt>
      <trkpt lat="44.49134" lon="5.69934">
        <ele>788.05</ele>
        <time>2018-11-27T10:25:41Z</time>
      </trkpt>
      <trkpt lat="44.49117" lon="5.69934">
        <ele>786.67</ele>
        <time>2018-11-27T10:25:45Z</time>
      </trkpt>
      <trkpt lat="44.49113" lon="5.69937">
        <ele>786.26</ele>
        <time>2018-11-27T10:25:46Z</time>
      </trkpt>
      <trkpt lat="44.49093" lon="5.69953">
        <ele>784.22</ele>
        <time>2018-11-27T10:25:50Z</time>
      </trkpt>
      <trkpt lat="44.49089" lon="5.69959">
        <ele>783.34</ele>
        <time>2018-11-27T10:25:51Z</time>
      </trkpt>
      <trkpt lat="44.49085" lon="5.69967">
        <ele>782.82</ele>
        <time>2018-11-27T10:25:52Z</time>
      </trkpt>
      <trkpt lat="44.49081" lon="5.69974">
        <ele>782.25</ele>
        <time>2018-11-27T10:25:53Z</time>
      </trkpt>
      <trkpt lat="44.49078" lon="5.69981">
        <ele>781.69</ele>
        <time>2018-11-27T10:25:54Z</time>
      </trkpt>
      <trkpt lat="44.4907" lon="5.69999">
        <ele>780.05</ele>
        <time>2018-11-27T10:25:57Z</time>
      </trkpt>
      <trkpt lat="44.49067" lon="5.70004">
        <ele>779.6</ele>
        <time>2018-11-27T10:25:58Z</time>
      </trkpt>
      <trkpt lat="44.49049" lon="5.70022">
        <ele>777.27</ele>
        <time>2018-11-27T10:26:03Z</time>
      </trkpt>
      <trkpt lat="44.49044" lon="5.70025">
        <ele>776.76</ele>
        <time>2018-11-27T10:26:04Z</time>
      </trkpt>
      <trkpt lat="44.49039" lon="5.70027">
        <ele>776.26</ele>
        <time>2018-11-27T10:26:05Z</time>
      </trkpt>
      <trkpt lat="44.49034" lon="5.70028">
        <ele>775.74</ele>
        <time>2018-11-27T10:26:06Z</time>
      </trkpt>
      <trkpt lat="44.49028" lon="5.70028">
        <ele>775.18</ele>
        <time>2018-11-27T10:26:07Z</time>
      </trkpt>
      <trkpt lat="44.49022" lon="5.70026">
        <ele>774.6</ele>
        <time>2018-11-27T10:26:08Z</time>
      </trkpt>
      <trkpt lat="44.49016" lon="5.70024">
        <ele>774.04</ele>
        <time>2018-11-27T10:26:09Z</time>
      </trkpt>
      <trkpt lat="44.4901" lon="5.70024">
        <ele>773.49</ele>
        <time>2018-11-27T10:26:10Z</time>
      </trkpt>
      <trkpt lat="44.49006" lon="5.70026">
        <ele>772.91</ele>
        <time>2018-11-27T10:26:11Z</time>
      </trkpt>
      <trkpt lat="44.49002" lon="5.70029">
        <ele>772.41</ele>
        <time>2018-11-27T10:26:12Z</time>
      </trkpt>
      <trkpt lat="44.49" lon="5.70032">
        <ele>771.67</ele>
        <time>2018-11-27T10:26:13Z</time>
      </trkpt>
      <trkpt lat="44.48998" lon="5.70034">
        <ele>771.67</ele>
        <time>2018-11-27T10:26:14Z</time>
      </trkpt>
      <trkpt lat="44.48982" lon="5.70056">
        <ele>773.29</ele>
        <time>2018-11-27T10:26:27Z</time>
      </trkpt>
      <trkpt lat="44.48965" lon="5.70085">
        <ele>776.43</ele>
        <time>2018-11-27T10:26:43Z</time>
      </trkpt>
      <trkpt lat="44.48963" lon="5.70089">
        <ele>777.32</ele>
        <time>2018-11-27T10:26:46Z</time>
      </trkpt>
      <trkpt lat="44.48961" lon="5.7009">
        <ele>777.64</ele>
        <time>2018-11-27T10:26:47Z</time>
      </trkpt>
      <trkpt lat="44.4894" lon="5.70115">
        <ele>779.21</ele>
        <time>2018-11-27T10:27:02Z</time>
      </trkpt>
      <trkpt lat="44.48922" lon="5.70149">
        <ele>779.47</ele>
        <time>2018-11-27T10:27:17Z</time>
      </trkpt>
      <trkpt lat="44.48903" lon="5.70184">
        <ele>782.35</ele>
        <time>2018-11-27T10:27:33Z</time>
      </trkpt>
      <trkpt lat="44.48893" lon="5.70218">
        <ele>785.18</ele>
        <time>2018-11-27T10:27:49Z</time>
      </trkpt>
      <trkpt lat="44.48883" lon="5.70233">
        <ele>788.3</ele>
        <time>2018-11-27T10:27:57Z</time>
      </trkpt>
      <trkpt lat="44.48863" lon="5.70252">
        <ele>791.32</ele>
        <time>2018-11-27T10:28:10Z</time>
      </trkpt>
      <trkpt lat="44.48832" lon="5.70274">
        <ele>792.29</ele>
        <time>2018-11-27T10:28:27Z</time>
      </trkpt>
      <trkpt lat="44.48805" lon="5.70294">
        <ele>793.01</ele>
        <time>2018-11-27T10:28:41Z</time>
      </trkpt>
      <trkpt lat="44.48775" lon="5.70304">
        <ele>796.07</ele>
        <time>2018-11-27T10:28:56Z</time>
      </trkpt>
      <trkpt lat="44.4876" lon="5.70319">
        <ele>799.49</ele>
        <time>2018-11-27T10:29:05Z</time>
      </trkpt>
      <trkpt lat="44.48755" lon="5.70323">
        <ele>801.15</ele>
        <time>2018-11-27T10:29:08Z</time>
      </trkpt>
      <trkpt lat="44.48749" lon="5.70325">
        <ele>804.7</ele>
        <time>2018-11-27T10:29:12Z</time>
      </trkpt>
      <trkpt lat="44.48745" lon="5.70323">
        <ele>806.49</ele>
        <time>2018-11-27T10:29:16Z</time>
      </trkpt>
      <trkpt lat="44.48744" lon="5.70321">
        <ele>806.74</ele>
        <time>2018-11-27T10:29:17Z</time>
      </trkpt>
      <trkpt lat="44.48743" lon="5.70319">
        <ele>807.03</ele>
        <time>2018-11-27T10:29:18Z</time>
      </trkpt>
      <trkpt lat="44.48739" lon="5.70308">
        <ele>810.16</ele>
        <time>2018-11-27T10:29:33Z</time>
      </trkpt>
      <trkpt lat="44.48739" lon="5.70307">
        <ele>807.03</ele>
        <time>2018-11-27T10:30:01Z</time>
      </trkpt>
      <trkpt lat="44.48737" lon="5.70302">
        <ele>806.99</ele>
        <time>2018-11-27T10:30:10Z</time>
      </trkpt>
      <trkpt lat="44.48729" lon="5.70271">
        <ele>806.89</ele>
        <time>2018-11-27T10:30:28Z</time>
      </trkpt>
      <trkpt lat="44.48717" lon="5.70244">
        <ele>808.37</ele>
        <time>2018-11-27T10:30:43Z</time>
      </trkpt>
      <trkpt lat="44.48706" lon="5.70212">
        <ele>811.15</ele>
        <time>2018-11-27T10:31:01Z</time>
      </trkpt>
      <trkpt lat="44.48705" lon="5.70181">
        <ele>814.57</ele>
        <time>2018-11-27T10:31:19Z</time>
      </trkpt>
      <trkpt lat="44.48705" lon="5.7018">
        <ele>814.57</ele>
        <time>2018-11-27T10:31:20Z</time>
      </trkpt>
      <trkpt lat="44.48708" lon="5.70163">
        <ele>816.13</ele>
        <time>2018-11-27T10:31:31Z</time>
      </trkpt>
      <trkpt lat="44.48709" lon="5.70154">
        <ele>816.56</ele>
        <time>2018-11-27T10:31:36Z</time>
      </trkpt>
      <trkpt lat="44.48713" lon="5.70123">
        <ele>819.9</ele>
        <time>2018-11-27T10:31:54Z</time>
      </trkpt>
      <trkpt lat="44.48713" lon="5.70122">
        <ele>820.18</ele>
        <time>2018-11-27T10:31:55Z</time>
      </trkpt>
      <trkpt lat="44.48722" lon="5.70094">
        <ele>821.89</ele>
        <time>2018-11-27T10:32:12Z</time>
      </trkpt>
      <trkpt lat="44.48728" lon="5.7007">
        <ele>824.99</ele>
        <time>2018-11-27T10:32:27Z</time>
      </trkpt>
      <trkpt lat="44.48735" lon="5.70033">
        <ele>827.42</ele>
        <time>2018-11-27T10:32:47Z</time>
      </trkpt>
      <trkpt lat="44.48737" lon="5.70013">
        <ele>831.09</ele>
        <time>2018-11-27T10:32:59Z</time>
      </trkpt>
      <trkpt lat="44.48737" lon="5.7001">
        <ele>831.7</ele>
        <time>2018-11-27T10:33:01Z</time>
      </trkpt>
      <trkpt lat="44.48742" lon="5.69986">
        <ele>834.91</ele>
        <time>2018-11-27T10:33:16Z</time>
      </trkpt>
      <trkpt lat="44.48745" lon="5.69973">
        <ele>837.94</ele>
        <time>2018-11-27T10:33:24Z</time>
      </trkpt>
      <trkpt lat="44.48752" lon="5.69942">
        <ele>839.89</ele>
        <time>2018-11-27T10:33:43Z</time>
      </trkpt>
      <trkpt lat="44.48755" lon="5.69932">
        <ele>841.32</ele>
        <time>2018-11-27T10:33:50Z</time>
      </trkpt>
      <trkpt lat="44.48758" lon="5.69899">
        <ele>843.37</ele>
        <time>2018-11-27T10:34:10Z</time>
      </trkpt>
      <trkpt lat="44.4876" lon="5.69886">
        <ele>845.3</ele>
        <time>2018-11-27T10:34:23Z</time>
      </trkpt>
      <trkpt lat="44.48761" lon="5.69882">
        <ele>845.97</ele>
        <time>2018-11-27T10:34:52Z</time>
      </trkpt>
      <trkpt lat="44.48762" lon="5.69876">
        <ele>846.13</ele>
        <time>2018-11-27T10:35:11Z</time>
      </trkpt>
      <trkpt lat="44.48768" lon="5.69845">
        <ele>847.25</ele>
        <time>2018-11-27T10:35:31Z</time>
      </trkpt>
      <trkpt lat="44.48773" lon="5.69823">
        <ele>849.43</ele>
        <time>2018-11-27T10:35:50Z</time>
      </trkpt>
      <trkpt lat="44.48778" lon="5.69803">
        <ele>851.58</ele>
        <time>2018-11-27T10:36:06Z</time>
      </trkpt>
      <trkpt lat="44.48786" lon="5.69782">
        <ele>854.21</ele>
        <time>2018-11-27T10:36:26Z</time>
      </trkpt>
      <trkpt lat="44.48791" lon="5.69762">
        <ele>855.9</ele>
        <time>2018-11-27T10:36:43Z</time>
      </trkpt>
      <trkpt lat="44.48792" lon="5.69759">
        <ele>856.09</ele>
        <time>2018-11-27T10:36:45Z</time>
      </trkpt>
      <trkpt lat="44.48796" lon="5.69739">
        <ele>859.24</ele>
        <time>2018-11-27T10:37:01Z</time>
      </trkpt>
      <trkpt lat="44.48798" lon="5.69732">
        <ele>860.23</ele>
        <time>2018-11-27T10:37:07Z</time>
      </trkpt>
      <trkpt lat="44.48803" lon="5.69721">
        <ele>860.56</ele>
        <time>2018-11-27T10:37:16Z</time>
      </trkpt>
      <trkpt lat="44.48813" lon="5.69702">
        <ele>862.11</ele>
        <time>2018-11-27T10:37:31Z</time>
      </trkpt>
      <trkpt lat="44.48818" lon="5.69686">
        <ele>863.49</ele>
        <time>2018-11-27T10:37:43Z</time>
      </trkpt>
      <trkpt lat="44.48817" lon="5.69683">
        <ele>863.61</ele>
        <time>2018-11-27T10:37:45Z</time>
      </trkpt>
      <trkpt lat="44.48814" lon="5.6968">
        <ele>863.86</ele>
        <time>2018-11-27T10:37:49Z</time>
      </trkpt>
      <trkpt lat="44.48811" lon="5.69679">
        <ele>864.1</ele>
        <time>2018-11-27T10:37:51Z</time>
      </trkpt>
      <trkpt lat="44.48805" lon="5.69683">
        <ele>865.16</ele>
        <time>2018-11-27T10:37:57Z</time>
      </trkpt>
      <trkpt lat="44.4879" lon="5.69705">
        <ele>867.3</ele>
        <time>2018-11-27T10:38:16Z</time>
      </trkpt>
      <trkpt lat="44.48786" lon="5.69709">
        <ele>867.52</ele>
        <time>2018-11-27T10:38:19Z</time>
      </trkpt>
      <trkpt lat="44.48767" lon="5.69717">
        <ele>870.77</ele>
        <time>2018-11-27T10:38:32Z</time>
      </trkpt>
      <trkpt lat="44.48765" lon="5.69717">
        <ele>872.1</ele>
        <time>2018-11-27T10:38:51Z</time>
      </trkpt>
      <trkpt lat="44.48764" lon="5.69719">
        <ele>872.47</ele>
        <time>2018-11-27T10:39:05Z</time>
      </trkpt>
      <trkpt lat="44.48762" lon="5.69717">
        <ele>872.17</ele>
        <time>2018-11-27T10:39:22Z</time>
      </trkpt>
      <trkpt lat="44.48747" lon="5.69693">
        <ele>872.73</ele>
        <time>2018-11-27T10:39:38Z</time>
      </trkpt>
      <trkpt lat="44.48742" lon="5.69661">
        <ele>874.82</ele>
        <time>2018-11-27T10:39:54Z</time>
      </trkpt>
      <trkpt lat="44.48741" lon="5.69652">
        <ele>875.27</ele>
        <time>2018-11-27T10:39:59Z</time>
      </trkpt>
      <trkpt lat="44.4874" lon="5.69634">
        <ele>875.91</ele>
        <time>2018-11-27T10:40:09Z</time>
      </trkpt>
      <trkpt lat="44.48738" lon="5.69627">
        <ele>876.21</ele>
        <time>2018-11-27T10:40:13Z</time>
      </trkpt>
      <trkpt lat="44.48733" lon="5.69599">
        <ele>877.99</ele>
        <time>2018-11-27T10:40:27Z</time>
      </trkpt>
      <trkpt lat="44.4873" lon="5.69563">
        <ele>879.63</ele>
        <time>2018-11-27T10:40:43Z</time>
      </trkpt>
      <trkpt lat="44.48726" lon="5.69542">
        <ele>880.76</ele>
        <time>2018-11-27T10:40:54Z</time>
      </trkpt>
      <trkpt lat="44.48715" lon="5.69516">
        <ele>882.14</ele>
        <time>2018-11-27T10:41:09Z</time>
      </trkpt>
      <trkpt lat="44.48712" lon="5.69501">
        <ele>883.28</ele>
        <time>2018-11-27T10:41:17Z</time>
      </trkpt>
      <trkpt lat="44.48712" lon="5.69498">
        <ele>883.7</ele>
        <time>2018-11-27T10:41:19Z</time>
      </trkpt>
      <trkpt lat="44.48705" lon="5.69479">
        <ele>885.03</ele>
        <time>2018-11-27T10:41:30Z</time>
      </trkpt>
      <trkpt lat="44.4869" lon="5.69463">
        <ele>886.15</ele>
        <time>2018-11-27T10:41:44Z</time>
      </trkpt>
      <trkpt lat="44.48671" lon="5.69475">
        <ele>886.2</ele>
        <time>2018-11-27T10:41:56Z</time>
      </trkpt>
      <trkpt lat="44.48666" lon="5.69482">
        <ele>886.26</ele>
        <time>2018-11-27T10:42:00Z</time>
      </trkpt>
      <trkpt lat="44.48654" lon="5.69497">
        <ele>887.44</ele>
        <time>2018-11-27T10:42:10Z</time>
      </trkpt>
      <trkpt lat="44.48633" lon="5.69506">
        <ele>889.18</ele>
        <time>2018-11-27T10:42:26Z</time>
      </trkpt>
      <trkpt lat="44.48618" lon="5.69498">
        <ele>891.4</ele>
        <time>2018-11-27T10:42:40Z</time>
      </trkpt>
      <trkpt lat="44.48607" lon="5.69492">
        <ele>893.37</ele>
        <time>2018-11-27T10:42:50Z</time>
      </trkpt>
      <trkpt lat="44.48586" lon="5.69492">
        <ele>895.95</ele>
        <time>2018-11-27T10:43:05Z</time>
      </trkpt>
      <trkpt lat="44.48571" lon="5.69469">
        <ele>897.49</ele>
        <time>2018-11-27T10:43:20Z</time>
      </trkpt>
      <trkpt lat="44.48572" lon="5.69462">
        <ele>897.65</ele>
        <time>2018-11-27T10:43:24Z</time>
      </trkpt>
      <trkpt lat="44.48587" lon="5.6945">
        <ele>899.24</ele>
        <time>2018-11-27T10:43:39Z</time>
      </trkpt>
      <trkpt lat="44.48605" lon="5.69425">
        <ele>900.8</ele>
        <time>2018-11-27T10:43:57Z</time>
      </trkpt>
      <trkpt lat="44.48622" lon="5.69401">
        <ele>902.02</ele>
        <time>2018-11-27T10:44:14Z</time>
      </trkpt>
      <trkpt lat="44.48641" lon="5.69378">
        <ele>904.66</ele>
        <time>2018-11-27T10:44:33Z</time>
      </trkpt>
      <trkpt lat="44.48657" lon="5.69359">
        <ele>906.41</ele>
        <time>2018-11-27T10:44:48Z</time>
      </trkpt>
      <trkpt lat="44.48672" lon="5.6934">
        <ele>908.06</ele>
        <time>2018-11-27T10:45:02Z</time>
      </trkpt>
      <trkpt lat="44.48692" lon="5.69335">
        <ele>908.86</ele>
        <time>2018-11-27T10:45:12Z</time>
      </trkpt>
      <trkpt lat="44.48693" lon="5.69335">
        <ele>908.95</ele>
        <time>2018-11-27T10:45:13Z</time>
      </trkpt>
      <trkpt lat="44.48694" lon="5.69336">
        <ele>909.03</ele>
        <time>2018-11-27T10:45:14Z</time>
      </trkpt>
      <trkpt lat="44.48696" lon="5.69337">
        <ele>909.06</ele>
        <time>2018-11-27T10:45:15Z</time>
      </trkpt>
      <trkpt lat="44.48697" lon="5.69338">
        <ele>909.02</ele>
        <time>2018-11-27T10:45:16Z</time>
      </trkpt>
      <trkpt lat="44.48698" lon="5.69339">
        <ele>908.97</ele>
        <time>2018-11-27T10:45:17Z</time>
      </trkpt>
      <trkpt lat="44.48699" lon="5.6934">
        <ele>908.95</ele>
        <time>2018-11-27T10:45:18Z</time>
      </trkpt>
      <trkpt lat="44.487" lon="5.69341">
        <ele>908.93</ele>
        <time>2018-11-27T10:45:19Z</time>
      </trkpt>
      <trkpt lat="44.48701" lon="5.69343">
        <ele>908.9</ele>
        <time>2018-11-27T10:45:20Z</time>
      </trkpt>
      <trkpt lat="44.48702" lon="5.69344">
        <ele>908.89</ele>
        <time>2018-11-27T10:45:21Z</time>
      </trkpt>
      <trkpt lat="44.48703" lon="5.69345">
        <ele>908.88</ele>
        <time>2018-11-27T10:45:22Z</time>
      </trkpt>
      <trkpt lat="44.48704" lon="5.69347">
        <ele>908.88</ele>
        <time>2018-11-27T10:45:23Z</time>
      </trkpt>
      <trkpt lat="44.48706" lon="5.69348">
        <ele>908.88</ele>
        <time>2018-11-27T10:45:24Z</time>
      </trkpt>
      <trkpt lat="44.48707" lon="5.69349">
        <ele>908.88</ele>
        <time>2018-11-27T10:45:25Z</time>
      </trkpt>
      <trkpt lat="44.48708" lon="5.6935">
        <ele>908.93</ele>
        <time>2018-11-27T10:45:26Z</time>
      </trkpt>
      <trkpt lat="44.4871" lon="5.69351">
        <ele>909.1</ele>
        <time>2018-11-27T10:45:27Z</time>
      </trkpt>
      <trkpt lat="44.48711" lon="5.69352">
        <ele>909.39</ele>
        <time>2018-11-27T10:45:28Z</time>
      </trkpt>
      <trkpt lat="44.48712" lon="5.69352">
        <ele>909.67</ele>
        <time>2018-11-27T10:45:29Z</time>
      </trkpt>
      <trkpt lat="44.48713" lon="5.69352">
        <ele>909.91</ele>
        <time>2018-11-27T10:45:30Z</time>
      </trkpt>
      <trkpt lat="44.48715" lon="5.69353">
        <ele>910.25</ele>
        <time>2018-11-27T10:45:31Z</time>
      </trkpt>
      <trkpt lat="44.48734" lon="5.69361">
        <ele>911.4</ele>
        <time>2018-11-27T10:45:43Z</time>
      </trkpt>
      <trkpt lat="44.48736" lon="5.69361">
        <ele>911.49</ele>
        <time>2018-11-27T10:45:44Z</time>
      </trkpt>
      <trkpt lat="44.48738" lon="5.69361">
        <ele>911.57</ele>
        <time>2018-11-27T10:45:45Z</time>
      </trkpt>
      <trkpt lat="44.48761" lon="5.69353">
        <ele>913.09</ele>
        <time>2018-11-27T10:45:59Z</time>
      </trkpt>
      <trkpt lat="44.48767" lon="5.69334">
        <ele>914.43</ele>
        <time>2018-11-27T10:46:13Z</time>
      </trkpt>
      <trkpt lat="44.48767" lon="5.69334">
        <ele>914.89</ele>
        <time>2018-11-27T10:46:37Z</time>
      </trkpt>
      <trkpt lat="44.48769" lon="5.69333">
        <ele>914.9</ele>
        <time>2018-11-27T10:47:12Z</time>
      </trkpt>
      <trkpt lat="44.48767" lon="5.6933">
        <ele>914.94</ele>
        <time>2018-11-27T10:47:48Z</time>
      </trkpt>
      <trkpt lat="44.48767" lon="5.69327">
        <ele>914.05</ele>
        <time>2018-11-27T10:48:28Z</time>
      </trkpt>
      <trkpt lat="44.48768" lon="5.69326">
        <ele>914.61</ele>
        <time>2018-11-27T10:49:02Z</time>
      </trkpt>
      <trkpt lat="44.48766" lon="5.69324">
        <ele>914.68</ele>
        <time>2018-11-27T10:49:12Z</time>
      </trkpt>
      <trkpt lat="44.48746" lon="5.69317">
        <ele>914.77</ele>
        <time>2018-11-27T10:49:27Z</time>
      </trkpt>
      <trkpt lat="44.48729" lon="5.69301">
        <ele>915.8</ele>
        <time>2018-11-27T10:49:40Z</time>
      </trkpt>
      <trkpt lat="44.48712" lon="5.69273">
        <ele>917.54</ele>
        <time>2018-11-27T10:49:57Z</time>
      </trkpt>
      <trkpt lat="44.48697" lon="5.69253">
        <ele>919.02</ele>
        <time>2018-11-27T10:50:11Z</time>
      </trkpt>
      <trkpt lat="44.48695" lon="5.6925">
        <ele>919.25</ele>
        <time>2018-11-27T10:50:14Z</time>
      </trkpt>
      <trkpt lat="44.48678" lon="5.69245">
        <ele>920.3</ele>
        <time>2018-11-27T10:50:27Z</time>
      </trkpt>
      <trkpt lat="44.48665" lon="5.69235">
        <ele>922.53</ele>
        <time>2018-11-27T10:50:37Z</time>
      </trkpt>
      <trkpt lat="44.48664" lon="5.69234">
        <ele>922.62</ele>
        <time>2018-11-27T10:50:38Z</time>
      </trkpt>
      <trkpt lat="44.48663" lon="5.69233">
        <ele>922.65</ele>
        <time>2018-11-27T10:50:39Z</time>
      </trkpt>
      <trkpt lat="44.48662" lon="5.69232">
        <ele>922.63</ele>
        <time>2018-11-27T10:50:40Z</time>
      </trkpt>
      <trkpt lat="44.4866" lon="5.69231">
        <ele>922.61</ele>
        <time>2018-11-27T10:50:41Z</time>
      </trkpt>
      <trkpt lat="44.48654" lon="5.69227">
        <ele>922.88</ele>
        <time>2018-11-27T10:50:46Z</time>
      </trkpt>
      <trkpt lat="44.48652" lon="5.69226">
        <ele>922.96</ele>
        <time>2018-11-27T10:50:47Z</time>
      </trkpt>
      <trkpt lat="44.48651" lon="5.69226">
        <ele>923.03</ele>
        <time>2018-11-27T10:50:48Z</time>
      </trkpt>
      <trkpt lat="44.48637" lon="5.69232">
        <ele>923.3</ele>
        <time>2018-11-27T10:50:56Z</time>
      </trkpt>
      <trkpt lat="44.48636" lon="5.69233">
        <ele>923.41</ele>
        <time>2018-11-27T10:50:57Z</time>
      </trkpt>
      <trkpt lat="44.4861" lon="5.69247">
        <ele>925.95</ele>
        <time>2018-11-27T10:51:15Z</time>
      </trkpt>
      <trkpt lat="44.48591" lon="5.69242">
        <ele>928.11</ele>
        <time>2018-11-27T10:51:30Z</time>
      </trkpt>
      <trkpt lat="44.48587" lon="5.6924">
        <ele>928.74</ele>
        <time>2018-11-27T10:51:33Z</time>
      </trkpt>
      <trkpt lat="44.48586" lon="5.69239">
        <ele>929.01</ele>
        <time>2018-11-27T10:51:34Z</time>
      </trkpt>
      <trkpt lat="44.48585" lon="5.69238">
        <ele>929.25</ele>
        <time>2018-11-27T10:51:35Z</time>
      </trkpt>
      <trkpt lat="44.48569" lon="5.69226">
        <ele>931.7</ele>
        <time>2018-11-27T10:51:49Z</time>
      </trkpt>
      <trkpt lat="44.48567" lon="5.69225">
        <ele>931.77</ele>
        <time>2018-11-27T10:51:50Z</time>
      </trkpt>
      <trkpt lat="44.48553" lon="5.69217">
        <ele>933.23</ele>
        <time>2018-11-27T10:52:03Z</time>
      </trkpt>
      <trkpt lat="44.48536" lon="5.6921">
        <ele>934.8</ele>
        <time>2018-11-27T10:52:15Z</time>
      </trkpt>
      <trkpt lat="44.48519" lon="5.69197">
        <ele>936.93</ele>
        <time>2018-11-27T10:52:30Z</time>
      </trkpt>
      <trkpt lat="44.48497" lon="5.69181">
        <ele>939.47</ele>
        <time>2018-11-27T10:52:46Z</time>
      </trkpt>
      <trkpt lat="44.48475" lon="5.69174">
        <ele>940.56</ele>
        <time>2018-11-27T10:53:00Z</time>
      </trkpt>
      <trkpt lat="44.48477" lon="5.69155">
        <ele>941.48</ele>
        <time>2018-11-27T10:53:14Z</time>
      </trkpt>
      <trkpt lat="44.48498" lon="5.69155">
        <ele>943.6</ele>
        <time>2018-11-27T10:53:30Z</time>
      </trkpt>
      <trkpt lat="44.48506" lon="5.69155">
        <ele>944.45</ele>
        <time>2018-11-27T10:53:35Z</time>
      </trkpt>
      <trkpt lat="44.48525" lon="5.69142">
        <ele>946.26</ele>
        <time>2018-11-27T10:53:50Z</time>
      </trkpt>
      <trkpt lat="44.4854" lon="5.69121">
        <ele>948.39</ele>
        <time>2018-11-27T10:54:04Z</time>
      </trkpt>
      <trkpt lat="44.48553" lon="5.69098">
        <ele>950.86</ele>
        <time>2018-11-27T10:54:20Z</time>
      </trkpt>
      <trkpt lat="44.48568" lon="5.69076">
        <ele>952.57</ele>
        <time>2018-11-27T10:54:35Z</time>
      </trkpt>
      <trkpt lat="44.48575" lon="5.69068">
        <ele>953.55</ele>
        <time>2018-11-27T10:54:41Z</time>
      </trkpt>
      <trkpt lat="44.48576" lon="5.69066">
        <ele>953.66</ele>
        <time>2018-11-27T10:54:42Z</time>
      </trkpt>
      <trkpt lat="44.48577" lon="5.69065">
        <ele>953.79</ele>
        <time>2018-11-27T10:54:43Z</time>
      </trkpt>
      <trkpt lat="44.48578" lon="5.69064">
        <ele>953.94</ele>
        <time>2018-11-27T10:54:44Z</time>
      </trkpt>
      <trkpt lat="44.48579" lon="5.69062">
        <ele>954.09</ele>
        <time>2018-11-27T10:54:45Z</time>
      </trkpt>
      <trkpt lat="44.4858" lon="5.69061">
        <ele>954.22</ele>
        <time>2018-11-27T10:54:46Z</time>
      </trkpt>
      <trkpt lat="44.48581" lon="5.6906">
        <ele>954.34</ele>
        <time>2018-11-27T10:54:47Z</time>
      </trkpt>
      <trkpt lat="44.48582" lon="5.69059">
        <ele>954.43</ele>
        <time>2018-11-27T10:54:48Z</time>
      </trkpt>
      <trkpt lat="44.48596" lon="5.69042">
        <ele>956.57</ele>
        <time>2018-11-27T10:55:01Z</time>
      </trkpt>
      <trkpt lat="44.48598" lon="5.69039">
        <ele>957.08</ele>
        <time>2018-11-27T10:55:04Z</time>
      </trkpt>
      <trkpt lat="44.48599" lon="5.69038">
        <ele>957.18</ele>
        <time>2018-11-27T10:55:05Z</time>
      </trkpt>
      <trkpt lat="44.48619" lon="5.69022">
        <ele>959.91</ele>
        <time>2018-11-27T10:55:22Z</time>
      </trkpt>
      <trkpt lat="44.48633" lon="5.69004">
        <ele>961.46</ele>
        <time>2018-11-27T10:55:35Z</time>
      </trkpt>
      <trkpt lat="44.48634" lon="5.69002">
        <ele>961.65</ele>
        <time>2018-11-27T10:55:36Z</time>
      </trkpt>
      <trkpt lat="44.48648" lon="5.68979">
        <ele>964.14</ele>
        <time>2018-11-27T10:55:52Z</time>
      </trkpt>
      <trkpt lat="44.48649" lon="5.68977">
        <ele>964.28</ele>
        <time>2018-11-27T10:55:53Z</time>
      </trkpt>
      <trkpt lat="44.4865" lon="5.68975">
        <ele>964.41</ele>
        <time>2018-11-27T10:55:54Z</time>
      </trkpt>
      <trkpt lat="44.48651" lon="5.68974">
        <ele>964.54</ele>
        <time>2018-11-27T10:55:55Z</time>
      </trkpt>
      <trkpt lat="44.48652" lon="5.68973">
        <ele>964.67</ele>
        <time>2018-11-27T10:55:56Z</time>
      </trkpt>
      <trkpt lat="44.48654" lon="5.68972">
        <ele>964.8</ele>
        <time>2018-11-27T10:55:57Z</time>
      </trkpt>
      <trkpt lat="44.48655" lon="5.68971">
        <ele>964.96</ele>
        <time>2018-11-27T10:55:58Z</time>
      </trkpt>
      <trkpt lat="44.48656" lon="5.6897">
        <ele>965.12</ele>
        <time>2018-11-27T10:55:59Z</time>
      </trkpt>
      <trkpt lat="44.48657" lon="5.68969">
        <ele>965.3</ele>
        <time>2018-11-27T10:56:00Z</time>
      </trkpt>
      <trkpt lat="44.48658" lon="5.68968">
        <ele>965.47</ele>
        <time>2018-11-27T10:56:01Z</time>
      </trkpt>
      <trkpt lat="44.48659" lon="5.68966">
        <ele>965.63</ele>
        <time>2018-11-27T10:56:02Z</time>
      </trkpt>
      <trkpt lat="44.4866" lon="5.68965">
        <ele>965.79</ele>
        <time>2018-11-27T10:56:03Z</time>
      </trkpt>
      <trkpt lat="44.48661" lon="5.68964">
        <ele>965.95</ele>
        <time>2018-11-27T10:56:04Z</time>
      </trkpt>
      <trkpt lat="44.48662" lon="5.68963">
        <ele>966.13</ele>
        <time>2018-11-27T10:56:05Z</time>
      </trkpt>
      <trkpt lat="44.48679" lon="5.68947">
        <ele>969.15</ele>
        <time>2018-11-27T10:56:21Z</time>
      </trkpt>
      <trkpt lat="44.48697" lon="5.68933">
        <ele>970.8</ele>
        <time>2018-11-27T10:56:37Z</time>
      </trkpt>
      <trkpt lat="44.48717" lon="5.68926">
        <ele>972.74</ele>
        <time>2018-11-27T10:56:52Z</time>
      </trkpt>
      <trkpt lat="44.48735" lon="5.68922">
        <ele>974.78</ele>
        <time>2018-11-27T10:57:05Z</time>
      </trkpt>
      <trkpt lat="44.48755" lon="5.68912">
        <ele>977.7</ele>
        <time>2018-11-27T10:57:20Z</time>
      </trkpt>
      <trkpt lat="44.48775" lon="5.68901">
        <ele>979.76</ele>
        <time>2018-11-27T10:57:35Z</time>
      </trkpt>
      <trkpt lat="44.48778" lon="5.689">
        <ele>979.98</ele>
        <time>2018-11-27T10:57:37Z</time>
      </trkpt>
      <trkpt lat="44.4878" lon="5.689">
        <ele>980.1</ele>
        <time>2018-11-27T10:57:38Z</time>
      </trkpt>
      <trkpt lat="44.48781" lon="5.689">
        <ele>980.28</ele>
        <time>2018-11-27T10:57:39Z</time>
      </trkpt>
      <trkpt lat="44.48782" lon="5.689">
        <ele>980.49</ele>
        <time>2018-11-27T10:57:40Z</time>
      </trkpt>
      <trkpt lat="44.48784" lon="5.689">
        <ele>980.67</ele>
        <time>2018-11-27T10:57:41Z</time>
      </trkpt>
      <trkpt lat="44.48785" lon="5.68899">
        <ele>980.81</ele>
        <time>2018-11-27T10:57:42Z</time>
      </trkpt>
      <trkpt lat="44.48803" lon="5.68891">
        <ele>981.95</ele>
        <time>2018-11-27T10:57:55Z</time>
      </trkpt>
      <trkpt lat="44.48818" lon="5.68872">
        <ele>984.1</ele>
        <time>2018-11-27T10:58:09Z</time>
      </trkpt>
      <trkpt lat="44.48826" lon="5.68867">
        <ele>984.72</ele>
        <time>2018-11-27T10:58:15Z</time>
      </trkpt>
      <trkpt lat="44.48827" lon="5.68866">
        <ele>984.82</ele>
        <time>2018-11-27T10:58:16Z</time>
      </trkpt>
      <trkpt lat="44.48832" lon="5.68863">
        <ele>985.48</ele>
        <time>2018-11-27T10:58:20Z</time>
      </trkpt>
      <trkpt lat="44.48833" lon="5.68862">
        <ele>985.59</ele>
        <time>2018-11-27T10:58:21Z</time>
      </trkpt>
      <trkpt lat="44.48842" lon="5.68858">
        <ele>986.39</ele>
        <time>2018-11-27T10:58:30Z</time>
      </trkpt>
      <trkpt lat="44.48844" lon="5.68858">
        <ele>986.49</ele>
        <time>2018-11-27T10:58:31Z</time>
      </trkpt>
      <trkpt lat="44.48845" lon="5.68857">
        <ele>986.59</ele>
        <time>2018-11-27T10:58:32Z</time>
      </trkpt>
      <trkpt lat="44.48864" lon="5.68849">
        <ele>988.49</ele>
        <time>2018-11-27T10:58:45Z</time>
      </trkpt>
      <trkpt lat="44.48879" lon="5.68828">
        <ele>990.79</ele>
        <time>2018-11-27T10:58:58Z</time>
      </trkpt>
      <trkpt lat="44.48884" lon="5.68822">
        <ele>991.6</ele>
        <time>2018-11-27T10:59:03Z</time>
      </trkpt>
      <trkpt lat="44.48885" lon="5.6882">
        <ele>991.74</ele>
        <time>2018-11-27T10:59:04Z</time>
      </trkpt>
      <trkpt lat="44.48902" lon="5.68801">
        <ele>993.58</ele>
        <time>2018-11-27T10:59:20Z</time>
      </trkpt>
      <trkpt lat="44.48922" lon="5.68795">
        <ele>995.9</ele>
        <time>2018-11-27T10:59:35Z</time>
      </trkpt>
      <trkpt lat="44.4894" lon="5.68791">
        <ele>997.32</ele>
        <time>2018-11-27T10:59:48Z</time>
      </trkpt>
      <trkpt lat="44.48956" lon="5.68787">
        <ele>999.74</ele>
        <time>2018-11-27T10:59:59Z</time>
      </trkpt>
      <trkpt lat="44.48974" lon="5.68777">
        <ele>1001.84</ele>
        <time>2018-11-27T11:00:13Z</time>
      </trkpt>
      <trkpt lat="44.48985" lon="5.68747">
        <ele>1003.91</ele>
        <time>2018-11-27T11:00:30Z</time>
      </trkpt>
      <trkpt lat="44.48991" lon="5.68723">
        <ele>1004.78</ele>
        <time>2018-11-27T11:00:43Z</time>
      </trkpt>
      <trkpt lat="44.48992" lon="5.68722">
        <ele>1004.93</ele>
        <time>2018-11-27T11:00:44Z</time>
      </trkpt>
      <trkpt lat="44.48993" lon="5.68721">
        <ele>1005.1</ele>
        <time>2018-11-27T11:00:45Z</time>
      </trkpt>
      <trkpt lat="44.49017" lon="5.68724">
        <ele>1007.5</ele>
        <time>2018-11-27T11:01:02Z</time>
      </trkpt>
      <trkpt lat="44.49025" lon="5.6872">
        <ele>1009.29</ele>
        <time>2018-11-27T11:01:17Z</time>
      </trkpt>
      <trkpt lat="44.49029" lon="5.68718">
        <ele>1008.94</ele>
        <time>2018-11-27T11:02:01Z</time>
      </trkpt>
      <trkpt lat="44.4903" lon="5.68718">
        <ele>1009.07</ele>
        <time>2018-11-27T11:02:51Z</time>
      </trkpt>
      <trkpt lat="44.4903" lon="5.68717">
        <ele>1008.11</ele>
        <time>2018-11-27T11:03:51Z</time>
      </trkpt>
      <trkpt lat="44.49026" lon="5.68718">
        <ele>1008.28</ele>
        <time>2018-11-27T11:04:37Z</time>
      </trkpt>
      <trkpt lat="44.49023" lon="5.68719">
        <ele>1007.92</ele>
        <time>2018-11-27T11:05:04Z</time>
      </trkpt>
      <trkpt lat="44.49018" lon="5.68716">
        <ele>1006.4</ele>
        <time>2018-11-27T11:05:25Z</time>
      </trkpt>
      <trkpt lat="44.49017" lon="5.68716">
        <ele>1008.61</ele>
        <time>2018-11-27T11:06:07Z</time>
      </trkpt>
      <trkpt lat="44.49018" lon="5.68718">
        <ele>1007.49</ele>
        <time>2018-11-27T11:06:42Z</time>
      </trkpt>
      <trkpt lat="44.49022" lon="5.6872">
        <ele>1006.73</ele>
        <time>2018-11-27T11:06:51Z</time>
      </trkpt>
      <trkpt lat="44.49027" lon="5.68709">
        <ele>1009.59</ele>
        <time>2018-11-27T11:07:06Z</time>
      </trkpt>
      <trkpt lat="44.49028" lon="5.68707">
        <ele>1009.63</ele>
        <time>2018-11-27T11:07:07Z</time>
      </trkpt>
      <trkpt lat="44.49027" lon="5.68703">
        <ele>1009.7</ele>
        <time>2018-11-27T11:07:10Z</time>
      </trkpt>
      <trkpt lat="44.4902" lon="5.68691">
        <ele>1010.6</ele>
        <time>2018-11-27T11:07:27Z</time>
      </trkpt>
      <trkpt lat="44.49018" lon="5.6869">
        <ele>1010.72</ele>
        <time>2018-11-27T11:07:29Z</time>
      </trkpt>
      <trkpt lat="44.49001" lon="5.68685">
        <ele>1011.26</ele>
        <time>2018-11-27T11:07:48Z</time>
      </trkpt>
      <trkpt lat="44.48984" lon="5.6868">
        <ele>1012.66</ele>
        <time>2018-11-27T11:08:01Z</time>
      </trkpt>
      <trkpt lat="44.48964" lon="5.68687">
        <ele>1015.16</ele>
        <time>2018-11-27T11:08:14Z</time>
      </trkpt>
      <trkpt lat="44.48941" lon="5.68695">
        <ele>1017.27</ele>
        <time>2018-11-27T11:08:30Z</time>
      </trkpt>
      <trkpt lat="44.48924" lon="5.68703">
        <ele>1019.79</ele>
        <time>2018-11-27T11:08:42Z</time>
      </trkpt>
      <trkpt lat="44.48906" lon="5.68694">
        <ele>1021.81</ele>
        <time>2018-11-27T11:08:58Z</time>
      </trkpt>
      <trkpt lat="44.48905" lon="5.68693">
        <ele>1021.87</ele>
        <time>2018-11-27T11:08:59Z</time>
      </trkpt>
      <trkpt lat="44.48904" lon="5.68692">
        <ele>1021.95</ele>
        <time>2018-11-27T11:09:00Z</time>
      </trkpt>
      <trkpt lat="44.48895" lon="5.68689">
        <ele>1022.97</ele>
        <time>2018-11-27T11:09:08Z</time>
      </trkpt>
      <trkpt lat="44.48893" lon="5.68688">
        <ele>1023.11</ele>
        <time>2018-11-27T11:09:09Z</time>
      </trkpt>
      <trkpt lat="44.48883" lon="5.68685">
        <ele>1024.07</ele>
        <time>2018-11-27T11:09:15Z</time>
      </trkpt>
      <trkpt lat="44.48882" lon="5.68684">
        <ele>1024.24</ele>
        <time>2018-11-27T11:09:16Z</time>
      </trkpt>
      <trkpt lat="44.48881" lon="5.68683">
        <ele>1024.48</ele>
        <time>2018-11-27T11:09:17Z</time>
      </trkpt>
      <trkpt lat="44.48879" lon="5.68682">
        <ele>1024.7</ele>
        <time>2018-11-27T11:09:18Z</time>
      </trkpt>
      <trkpt lat="44.48878" lon="5.68681">
        <ele>1024.9</ele>
        <time>2018-11-27T11:09:19Z</time>
      </trkpt>
      <trkpt lat="44.48863" lon="5.68669">
        <ele>1026.8</ele>
        <time>2018-11-27T11:09:30Z</time>
      </trkpt>
      <trkpt lat="44.48862" lon="5.6867">
        <ele>1026.99</ele>
        <time>2018-11-27T11:09:31Z</time>
      </trkpt>
      <trkpt lat="44.4886" lon="5.68671">
        <ele>1027.2</ele>
        <time>2018-11-27T11:09:32Z</time>
      </trkpt>
      <trkpt lat="44.48859" lon="5.68672">
        <ele>1027.41</ele>
        <time>2018-11-27T11:09:33Z</time>
      </trkpt>
      <trkpt lat="44.48857" lon="5.68673">
        <ele>1027.61</ele>
        <time>2018-11-27T11:09:34Z</time>
      </trkpt>
      <trkpt lat="44.48856" lon="5.68674">
        <ele>1027.84</ele>
        <time>2018-11-27T11:09:35Z</time>
      </trkpt>
      <trkpt lat="44.48855" lon="5.68675">
        <ele>1028.03</ele>
        <time>2018-11-27T11:09:36Z</time>
      </trkpt>
      <trkpt lat="44.48853" lon="5.68677">
        <ele>1028.21</ele>
        <time>2018-11-27T11:09:37Z</time>
      </trkpt>
      <trkpt lat="44.48852" lon="5.68678">
        <ele>1028.35</ele>
        <time>2018-11-27T11:09:38Z</time>
      </trkpt>
      <trkpt lat="44.48831" lon="5.68692">
        <ele>1029.64</ele>
        <time>2018-11-27T11:09:54Z</time>
      </trkpt>
      <trkpt lat="44.48813" lon="5.68705">
        <ele>1030.83</ele>
        <time>2018-11-27T11:10:09Z</time>
      </trkpt>
      <trkpt lat="44.48796" lon="5.68714">
        <ele>1032.83</ele>
        <time>2018-11-27T11:10:22Z</time>
      </trkpt>
      <trkpt lat="44.48775" lon="5.68723">
        <ele>1035.66</ele>
        <time>2018-11-27T11:10:38Z</time>
      </trkpt>
      <trkpt lat="44.48752" lon="5.68734">
        <ele>1038.08</ele>
        <time>2018-11-27T11:10:54Z</time>
      </trkpt>
      <trkpt lat="44.48732" lon="5.6874">
        <ele>1040.68</ele>
        <time>2018-11-27T11:11:08Z</time>
      </trkpt>
      <trkpt lat="44.48707" lon="5.68743">
        <ele>1043.71</ele>
        <time>2018-11-27T11:11:25Z</time>
      </trkpt>
      <trkpt lat="44.4869" lon="5.68735">
        <ele>1045.51</ele>
        <time>2018-11-27T11:11:37Z</time>
      </trkpt>
      <trkpt lat="44.48673" lon="5.68723">
        <ele>1047.94</ele>
        <time>2018-11-27T11:11:51Z</time>
      </trkpt>
      <trkpt lat="44.48649" lon="5.68709">
        <ele>1050.64</ele>
        <time>2018-11-27T11:12:08Z</time>
      </trkpt>
      <trkpt lat="44.48648" lon="5.68708">
        <ele>1050.85</ele>
        <time>2018-11-27T11:12:09Z</time>
      </trkpt>
      <trkpt lat="44.48634" lon="5.68696">
        <ele>1052.29</ele>
        <time>2018-11-27T11:12:21Z</time>
      </trkpt>
      <trkpt lat="44.48632" lon="5.68694">
        <ele>1052.59</ele>
        <time>2018-11-27T11:12:23Z</time>
      </trkpt>
      <trkpt lat="44.4863" lon="5.68693">
        <ele>1052.71</ele>
        <time>2018-11-27T11:12:24Z</time>
      </trkpt>
      <trkpt lat="44.48629" lon="5.68692">
        <ele>1052.82</ele>
        <time>2018-11-27T11:12:25Z</time>
      </trkpt>
      <trkpt lat="44.48609" lon="5.68677">
        <ele>1055.43</ele>
        <time>2018-11-27T11:12:42Z</time>
      </trkpt>
      <trkpt lat="44.48595" lon="5.68666">
        <ele>1056.9</ele>
        <time>2018-11-27T11:12:54Z</time>
      </trkpt>
      <trkpt lat="44.48593" lon="5.68665">
        <ele>1057.01</ele>
        <time>2018-11-27T11:12:55Z</time>
      </trkpt>
      <trkpt lat="44.48592" lon="5.68664">
        <ele>1057.11</ele>
        <time>2018-11-27T11:12:56Z</time>
      </trkpt>
      <trkpt lat="44.48586" lon="5.68659">
        <ele>1058.03</ele>
        <time>2018-11-27T11:13:01Z</time>
      </trkpt>
      <trkpt lat="44.48584" lon="5.68659">
        <ele>1058.17</ele>
        <time>2018-11-27T11:13:02Z</time>
      </trkpt>
      <trkpt lat="44.48583" lon="5.68658">
        <ele>1058.29</ele>
        <time>2018-11-27T11:13:03Z</time>
      </trkpt>
      <trkpt lat="44.48581" lon="5.68657">
        <ele>1058.39</ele>
        <time>2018-11-27T11:13:04Z</time>
      </trkpt>
      <trkpt lat="44.48565" lon="5.68653">
        <ele>1059.89</ele>
        <time>2018-11-27T11:13:15Z</time>
      </trkpt>
      <trkpt lat="44.48537" lon="5.68663">
        <ele>1061.99</ele>
        <time>2018-11-27T11:13:32Z</time>
      </trkpt>
      <trkpt lat="44.4853" lon="5.68667">
        <ele>1062.76</ele>
        <time>2018-11-27T11:13:38Z</time>
      </trkpt>
      <trkpt lat="44.48528" lon="5.68667">
        <ele>1062.88</ele>
        <time>2018-11-27T11:13:39Z</time>
      </trkpt>
      <trkpt lat="44.48527" lon="5.68668">
        <ele>1062.99</ele>
        <time>2018-11-27T11:13:40Z</time>
      </trkpt>
      <trkpt lat="44.48526" lon="5.68669">
        <ele>1063.1</ele>
        <time>2018-11-27T11:13:41Z</time>
      </trkpt>
      <trkpt lat="44.48524" lon="5.68669">
        <ele>1063.2</ele>
        <time>2018-11-27T11:13:42Z</time>
      </trkpt>
      <trkpt lat="44.48523" lon="5.6867">
        <ele>1063.3</ele>
        <time>2018-11-27T11:13:43Z</time>
      </trkpt>
      <trkpt lat="44.48522" lon="5.68672">
        <ele>1063.4</ele>
        <time>2018-11-27T11:13:44Z</time>
      </trkpt>
      <trkpt lat="44.48496" lon="5.68689">
        <ele>1065.98</ele>
        <time>2018-11-27T11:14:04Z</time>
      </trkpt>
      <trkpt lat="44.48494" lon="5.6869">
        <ele>1066.37</ele>
        <time>2018-11-27T11:14:06Z</time>
      </trkpt>
      <trkpt lat="44.48492" lon="5.68691">
        <ele>1066.52</ele>
        <time>2018-11-27T11:14:07Z</time>
      </trkpt>
      <trkpt lat="44.48491" lon="5.68691">
        <ele>1066.64</ele>
        <time>2018-11-27T11:14:08Z</time>
      </trkpt>
      <trkpt lat="44.48489" lon="5.68692">
        <ele>1066.75</ele>
        <time>2018-11-27T11:14:09Z</time>
      </trkpt>
      <trkpt lat="44.48488" lon="5.68693">
        <ele>1066.84</ele>
        <time>2018-11-27T11:14:10Z</time>
      </trkpt>
      <trkpt lat="44.48486" lon="5.68693">
        <ele>1066.93</ele>
        <time>2018-11-27T11:14:11Z</time>
      </trkpt>
      <trkpt lat="44.48485" lon="5.68693">
        <ele>1067.03</ele>
        <time>2018-11-27T11:14:12Z</time>
      </trkpt>
      <trkpt lat="44.48483" lon="5.68694">
        <ele>1067.13</ele>
        <time>2018-11-27T11:14:13Z</time>
      </trkpt>
      <trkpt lat="44.48482" lon="5.68694">
        <ele>1067.22</ele>
        <time>2018-11-27T11:14:14Z</time>
      </trkpt>
      <trkpt lat="44.4847" lon="5.68697">
        <ele>1068.53</ele>
        <time>2018-11-27T11:14:22Z</time>
      </trkpt>
      <trkpt lat="44.48469" lon="5.68697">
        <ele>1068.68</ele>
        <time>2018-11-27T11:14:23Z</time>
      </trkpt>
      <trkpt lat="44.48467" lon="5.68697">
        <ele>1068.84</ele>
        <time>2018-11-27T11:14:24Z</time>
      </trkpt>
      <trkpt lat="44.48466" lon="5.68698">
        <ele>1069</ele>
        <time>2018-11-27T11:14:25Z</time>
      </trkpt>
      <trkpt lat="44.48464" lon="5.68698">
        <ele>1069.16</ele>
        <time>2018-11-27T11:14:26Z</time>
      </trkpt>
      <trkpt lat="44.48463" lon="5.68699">
        <ele>1069.29</ele>
        <time>2018-11-27T11:14:27Z</time>
      </trkpt>
      <trkpt lat="44.48461" lon="5.68699">
        <ele>1069.4</ele>
        <time>2018-11-27T11:14:28Z</time>
      </trkpt>
      <trkpt lat="44.4846" lon="5.68699">
        <ele>1069.5</ele>
        <time>2018-11-27T11:14:29Z</time>
      </trkpt>
      <trkpt lat="44.48458" lon="5.68699">
        <ele>1069.58</ele>
        <time>2018-11-27T11:14:30Z</time>
      </trkpt>
      <trkpt lat="44.48457" lon="5.68699">
        <ele>1069.67</ele>
        <time>2018-11-27T11:14:31Z</time>
      </trkpt>
      <trkpt lat="44.48444" lon="5.68698">
        <ele>1070.99</ele>
        <time>2018-11-27T11:14:41Z</time>
      </trkpt>
      <trkpt lat="44.48443" lon="5.68698">
        <ele>1071.14</ele>
        <time>2018-11-27T11:14:42Z</time>
      </trkpt>
      <trkpt lat="44.48426" lon="5.68692">
        <ele>1073.72</ele>
        <time>2018-11-27T11:14:56Z</time>
      </trkpt>
      <trkpt lat="44.48406" lon="5.6869">
        <ele>1076.14</ele>
        <time>2018-11-27T11:15:10Z</time>
      </trkpt>
      <trkpt lat="44.48386" lon="5.68676">
        <ele>1078.18</ele>
        <time>2018-11-27T11:15:26Z</time>
      </trkpt>
      <trkpt lat="44.48369" lon="5.68664">
        <ele>1079.36</ele>
        <time>2018-11-27T11:15:40Z</time>
      </trkpt>
      <trkpt lat="44.48351" lon="5.6866">
        <ele>1080.78</ele>
        <time>2018-11-27T11:15:52Z</time>
      </trkpt>
      <trkpt lat="44.48327" lon="5.68668">
        <ele>1082.7</ele>
        <time>2018-11-27T11:16:07Z</time>
      </trkpt>
      <trkpt lat="44.48302" lon="5.68666">
        <ele>1085.69</ele>
        <time>2018-11-27T11:16:24Z</time>
      </trkpt>
      <trkpt lat="44.48282" lon="5.6866">
        <ele>1088.7</ele>
        <time>2018-11-27T11:16:40Z</time>
      </trkpt>
      <trkpt lat="44.48264" lon="5.68657">
        <ele>1090.84</ele>
        <time>2018-11-27T11:16:54Z</time>
      </trkpt>
      <trkpt lat="44.48248" lon="5.68651">
        <ele>1092.02</ele>
        <time>2018-11-27T11:17:08Z</time>
      </trkpt>
      <trkpt lat="44.48243" lon="5.68649">
        <ele>1092.46</ele>
        <time>2018-11-27T11:17:11Z</time>
      </trkpt>
      <trkpt lat="44.48242" lon="5.68648">
        <ele>1092.6</ele>
        <time>2018-11-27T11:17:12Z</time>
      </trkpt>
      <trkpt lat="44.4824" lon="5.68647">
        <ele>1092.73</ele>
        <time>2018-11-27T11:17:13Z</time>
      </trkpt>
      <trkpt lat="44.48216" lon="5.68648">
        <ele>1094.96</ele>
        <time>2018-11-27T11:17:29Z</time>
      </trkpt>
      <trkpt lat="44.48204" lon="5.68652">
        <ele>1095.5</ele>
        <time>2018-11-27T11:17:37Z</time>
      </trkpt>
      <trkpt lat="44.482" lon="5.68649">
        <ele>1095.8</ele>
        <time>2018-11-27T11:17:40Z</time>
      </trkpt>
      <trkpt lat="44.48199" lon="5.68647">
        <ele>1095.91</ele>
        <time>2018-11-27T11:17:41Z</time>
      </trkpt>
      <trkpt lat="44.48197" lon="5.68646">
        <ele>1096.03</ele>
        <time>2018-11-27T11:17:42Z</time>
      </trkpt>
      <trkpt lat="44.482" lon="5.68629">
        <ele>1096.88</ele>
        <time>2018-11-27T11:17:54Z</time>
      </trkpt>
      <trkpt lat="44.48214" lon="5.68633">
        <ele>1098.11</ele>
        <time>2018-11-27T11:18:06Z</time>
      </trkpt>
      <trkpt lat="44.48215" lon="5.68633">
        <ele>1098.35</ele>
        <time>2018-11-27T11:18:07Z</time>
      </trkpt>
      <trkpt lat="44.48234" lon="5.68635">
        <ele>1100.46</ele>
        <time>2018-11-27T11:18:20Z</time>
      </trkpt>
      <trkpt lat="44.48235" lon="5.68635">
        <ele>1100.59</ele>
        <time>2018-11-27T11:18:21Z</time>
      </trkpt>
      <trkpt lat="44.48237" lon="5.68635">
        <ele>1100.74</ele>
        <time>2018-11-27T11:18:22Z</time>
      </trkpt>
      <trkpt lat="44.48239" lon="5.68635">
        <ele>1101.17</ele>
        <time>2018-11-27T11:18:23Z</time>
      </trkpt>
      <trkpt lat="44.4824" lon="5.68635">
        <ele>1101.34</ele>
        <time>2018-11-27T11:18:24Z</time>
      </trkpt>
      <trkpt lat="44.48251" lon="5.68635">
        <ele>1102.2</ele>
        <time>2018-11-27T11:18:31Z</time>
      </trkpt>
      <trkpt lat="44.48253" lon="5.68634">
        <ele>1102.32</ele>
        <time>2018-11-27T11:18:32Z</time>
      </trkpt>
      <trkpt lat="44.48255" lon="5.68633">
        <ele>1102.43</ele>
        <time>2018-11-27T11:18:33Z</time>
      </trkpt>
      <trkpt lat="44.48256" lon="5.68633">
        <ele>1102.53</ele>
        <time>2018-11-27T11:18:34Z</time>
      </trkpt>
      <trkpt lat="44.48257" lon="5.68633">
        <ele>1102.61</ele>
        <time>2018-11-27T11:18:35Z</time>
      </trkpt>
      <trkpt lat="44.48259" lon="5.68632">
        <ele>1102.69</ele>
        <time>2018-11-27T11:18:36Z</time>
      </trkpt>
      <trkpt lat="44.4826" lon="5.68632">
        <ele>1102.78</ele>
        <time>2018-11-27T11:18:37Z</time>
      </trkpt>
      <trkpt lat="44.48262" lon="5.68631">
        <ele>1102.87</ele>
        <time>2018-11-27T11:18:38Z</time>
      </trkpt>
      <trkpt lat="44.48263" lon="5.6863">
        <ele>1102.96</ele>
        <time>2018-11-27T11:18:39Z</time>
      </trkpt>
      <trkpt lat="44.48265" lon="5.68629">
        <ele>1103.06</ele>
        <time>2018-11-27T11:18:40Z</time>
      </trkpt>
      <trkpt lat="44.48267" lon="5.68629">
        <ele>1103.37</ele>
        <time>2018-11-27T11:18:42Z</time>
      </trkpt>
      <trkpt lat="44.48269" lon="5.68628">
        <ele>1103.52</ele>
        <time>2018-11-27T11:18:43Z</time>
      </trkpt>
      <trkpt lat="44.4827" lon="5.68628">
        <ele>1103.64</ele>
        <time>2018-11-27T11:18:44Z</time>
      </trkpt>
      <trkpt lat="44.48272" lon="5.68628">
        <ele>1103.74</ele>
        <time>2018-11-27T11:18:45Z</time>
      </trkpt>
      <trkpt lat="44.48282" lon="5.68631">
        <ele>1104.9</ele>
        <time>2018-11-27T11:18:55Z</time>
      </trkpt>
      <trkpt lat="44.483" lon="5.68628">
        <ele>1106.87</ele>
        <time>2018-11-27T11:19:07Z</time>
      </trkpt>
      <trkpt lat="44.48314" lon="5.68611">
        <ele>1108.82</ele>
        <time>2018-11-27T11:19:19Z</time>
      </trkpt>
      <trkpt lat="44.48323" lon="5.686">
        <ele>1109.29</ele>
        <time>2018-11-27T11:19:29Z</time>
      </trkpt>
      <trkpt lat="44.48326" lon="5.68597">
        <ele>1109.76</ele>
        <time>2018-11-27T11:19:32Z</time>
      </trkpt>
      <trkpt lat="44.48327" lon="5.68596">
        <ele>1109.86</ele>
        <time>2018-11-27T11:19:33Z</time>
      </trkpt>
      <trkpt lat="44.48333" lon="5.68591">
        <ele>1110.14</ele>
        <time>2018-11-27T11:19:38Z</time>
      </trkpt>
      <trkpt lat="44.48349" lon="5.68568">
        <ele>1112.26</ele>
        <time>2018-11-27T11:19:55Z</time>
      </trkpt>
      <trkpt lat="44.48365" lon="5.68569">
        <ele>1114.12</ele>
        <time>2018-11-27T11:20:07Z</time>
      </trkpt>
      <trkpt lat="44.48386" lon="5.68575">
        <ele>1115.52</ele>
        <time>2018-11-27T11:20:22Z</time>
      </trkpt>
      <trkpt lat="44.48388" lon="5.68575">
        <ele>1115.59</ele>
        <time>2018-11-27T11:20:23Z</time>
      </trkpt>
      <trkpt lat="44.48406" lon="5.68572">
        <ele>1118.75</ele>
        <time>2018-11-27T11:20:37Z</time>
      </trkpt>
      <trkpt lat="44.48412" lon="5.68569">
        <ele>1119.63</ele>
        <time>2018-11-27T11:20:41Z</time>
      </trkpt>
      <trkpt lat="44.48413" lon="5.68569">
        <ele>1119.86</ele>
        <time>2018-11-27T11:20:42Z</time>
      </trkpt>
      <trkpt lat="44.48414" lon="5.68568">
        <ele>1120.06</ele>
        <time>2018-11-27T11:20:43Z</time>
      </trkpt>
      <trkpt lat="44.48415" lon="5.68567">
        <ele>1120.23</ele>
        <time>2018-11-27T11:20:44Z</time>
      </trkpt>
      <trkpt lat="44.4842" lon="5.68565">
        <ele>1120.7</ele>
        <time>2018-11-27T11:20:48Z</time>
      </trkpt>
      <trkpt lat="44.48421" lon="5.68564">
        <ele>1120.97</ele>
        <time>2018-11-27T11:20:49Z</time>
      </trkpt>
      <trkpt lat="44.48439" lon="5.68552">
        <ele>1123.77</ele>
        <time>2018-11-27T11:21:03Z</time>
      </trkpt>
      <trkpt lat="44.48449" lon="5.68543">
        <ele>1125.27</ele>
        <time>2018-11-27T11:21:14Z</time>
      </trkpt>
      <trkpt lat="44.48452" lon="5.68541">
        <ele>1125.28</ele>
        <time>2018-11-27T11:21:17Z</time>
      </trkpt>
      <trkpt lat="44.48453" lon="5.6854">
        <ele>1125.32</ele>
        <time>2018-11-27T11:21:18Z</time>
      </trkpt>
      <trkpt lat="44.48455" lon="5.68539">
        <ele>1125.38</ele>
        <time>2018-11-27T11:21:19Z</time>
      </trkpt>
      <trkpt lat="44.48471" lon="5.6852">
        <ele>1125.86</ele>
        <time>2018-11-27T11:21:34Z</time>
      </trkpt>
      <trkpt lat="44.48487" lon="5.68507">
        <ele>1127.34</ele>
        <time>2018-11-27T11:21:49Z</time>
      </trkpt>
      <trkpt lat="44.48507" lon="5.68502">
        <ele>1129.2</ele>
        <time>2018-11-27T11:22:03Z</time>
      </trkpt>
      <trkpt lat="44.48526" lon="5.68503">
        <ele>1131.38</ele>
        <time>2018-11-27T11:22:17Z</time>
      </trkpt>
      <trkpt lat="44.48544" lon="5.68496">
        <ele>1133.23</ele>
        <time>2018-11-27T11:22:32Z</time>
      </trkpt>
      <trkpt lat="44.48557" lon="5.68477">
        <ele>1134.78</ele>
        <time>2018-11-27T11:22:45Z</time>
      </trkpt>
      <trkpt lat="44.48565" lon="5.68452">
        <ele>1136.37</ele>
        <time>2018-11-27T11:23:00Z</time>
      </trkpt>
      <trkpt lat="44.48577" lon="5.68447">
        <ele>1138.19</ele>
        <time>2018-11-27T11:23:18Z</time>
      </trkpt>
      <trkpt lat="44.4858" lon="5.68448">
        <ele>1139.6</ele>
        <time>2018-11-27T11:23:39Z</time>
      </trkpt>
      <trkpt lat="44.48582" lon="5.68446">
        <ele>1139.65</ele>
        <time>2018-11-27T11:24:08Z</time>
      </trkpt>
      <trkpt lat="44.48586" lon="5.68454">
        <ele>1139.01</ele>
        <time>2018-11-27T11:24:23Z</time>
      </trkpt>
      <trkpt lat="44.48591" lon="5.68456">
        <ele>1140.22</ele>
        <time>2018-11-27T11:24:40Z</time>
      </trkpt>
      <trkpt lat="44.48593" lon="5.68458">
        <ele>1140.54</ele>
        <time>2018-11-27T11:24:42Z</time>
      </trkpt>
      <trkpt lat="44.48594" lon="5.68459">
        <ele>1140.64</ele>
        <time>2018-11-27T11:24:43Z</time>
      </trkpt>
      <trkpt lat="44.48595" lon="5.6846">
        <ele>1140.73</ele>
        <time>2018-11-27T11:24:44Z</time>
      </trkpt>
      <trkpt lat="44.48609" lon="5.6847">
        <ele>1141.43</ele>
        <time>2018-11-27T11:24:59Z</time>
      </trkpt>
      <trkpt lat="44.4863" lon="5.68476">
        <ele>1142.97</ele>
        <time>2018-11-27T11:25:18Z</time>
      </trkpt>
      <trkpt lat="44.48637" lon="5.68477">
        <ele>1144.19</ele>
        <time>2018-11-27T11:25:24Z</time>
      </trkpt>
      <trkpt lat="44.48644" lon="5.68477">
        <ele>1145.51</ele>
        <time>2018-11-27T11:25:33Z</time>
      </trkpt>
      <trkpt lat="44.48659" lon="5.68464">
        <ele>1147.16</ele>
        <time>2018-11-27T11:25:51Z</time>
      </trkpt>
      <trkpt lat="44.48661" lon="5.68458">
        <ele>1147.83</ele>
        <time>2018-11-27T11:25:55Z</time>
      </trkpt>
      <trkpt lat="44.48665" lon="5.68446">
        <ele>1148.45</ele>
        <time>2018-11-27T11:26:03Z</time>
      </trkpt>
      <trkpt lat="44.48668" lon="5.68431">
        <ele>1149.09</ele>
        <time>2018-11-27T11:26:13Z</time>
      </trkpt>
      <trkpt lat="44.48677" lon="5.68415">
        <ele>1150.45</ele>
        <time>2018-11-27T11:26:26Z</time>
      </trkpt>
      <trkpt lat="44.4868" lon="5.68407">
        <ele>1151.18</ele>
        <time>2018-11-27T11:26:32Z</time>
      </trkpt>
      <trkpt lat="44.48683" lon="5.684">
        <ele>1152.09</ele>
        <time>2018-11-27T11:26:38Z</time>
      </trkpt>
      <trkpt lat="44.48683" lon="5.68397">
        <ele>1152.23</ele>
        <time>2018-11-27T11:26:40Z</time>
      </trkpt>
      <trkpt lat="44.48688" lon="5.6839">
        <ele>1152.62</ele>
        <time>2018-11-27T11:26:46Z</time>
      </trkpt>
      <trkpt lat="44.48691" lon="5.68385">
        <ele>1152.72</ele>
        <time>2018-11-27T11:26:50Z</time>
      </trkpt>
      <trkpt lat="44.48702" lon="5.68367">
        <ele>1153.89</ele>
        <time>2018-11-27T11:27:05Z</time>
      </trkpt>
      <trkpt lat="44.48704" lon="5.6836">
        <ele>1154.43</ele>
        <time>2018-11-27T11:27:10Z</time>
      </trkpt>
      <trkpt lat="44.48707" lon="5.68349">
        <ele>1154.92</ele>
        <time>2018-11-27T11:27:18Z</time>
      </trkpt>
      <trkpt lat="44.48713" lon="5.68334">
        <ele>1155.97</ele>
        <time>2018-11-27T11:27:30Z</time>
      </trkpt>
      <trkpt lat="44.48717" lon="5.68319">
        <ele>1158.2</ele>
        <time>2018-11-27T11:27:45Z</time>
      </trkpt>
      <trkpt lat="44.48727" lon="5.68305">
        <ele>1160.85</ele>
        <time>2018-11-27T11:28:04Z</time>
      </trkpt>
      <trkpt lat="44.4873" lon="5.68301">
        <ele>1161.05</ele>
        <time>2018-11-27T11:28:08Z</time>
      </trkpt>
      <trkpt lat="44.48733" lon="5.68296">
        <ele>1161.07</ele>
        <time>2018-11-27T11:28:12Z</time>
      </trkpt>
      <trkpt lat="44.48737" lon="5.68283">
        <ele>1161.65</ele>
        <time>2018-11-27T11:28:21Z</time>
      </trkpt>
      <trkpt lat="44.48736" lon="5.6828">
        <ele>1161.8</ele>
        <time>2018-11-27T11:28:23Z</time>
      </trkpt>
      <trkpt lat="44.48736" lon="5.68278">
        <ele>1161.9</ele>
        <time>2018-11-27T11:28:25Z</time>
      </trkpt>
      <trkpt lat="44.48737" lon="5.68275">
        <ele>1162.03</ele>
        <time>2018-11-27T11:28:27Z</time>
      </trkpt>
      <trkpt lat="44.48738" lon="5.6827">
        <ele>1162.47</ele>
        <time>2018-11-27T11:28:31Z</time>
      </trkpt>
      <trkpt lat="44.48737" lon="5.68266">
        <ele>1162.67</ele>
        <time>2018-11-27T11:28:34Z</time>
      </trkpt>
      <trkpt lat="44.4874" lon="5.68261">
        <ele>1162.81</ele>
        <time>2018-11-27T11:28:38Z</time>
      </trkpt>
      <trkpt lat="44.48741" lon="5.68257">
        <ele>1162.84</ele>
        <time>2018-11-27T11:28:41Z</time>
      </trkpt>
      <trkpt lat="44.48742" lon="5.68251">
        <ele>1162.85</ele>
        <time>2018-11-27T11:28:45Z</time>
      </trkpt>
      <trkpt lat="44.48744" lon="5.68245">
        <ele>1162.92</ele>
        <time>2018-11-27T11:28:49Z</time>
      </trkpt>
      <trkpt lat="44.48746" lon="5.68242">
        <ele>1162.94</ele>
        <time>2018-11-27T11:28:51Z</time>
      </trkpt>
      <trkpt lat="44.4875" lon="5.68233">
        <ele>1162.7</ele>
        <time>2018-11-27T11:28:58Z</time>
      </trkpt>
      <trkpt lat="44.48755" lon="5.68217">
        <ele>1164.88</ele>
        <time>2018-11-27T11:29:11Z</time>
      </trkpt>
      <trkpt lat="44.48762" lon="5.68206">
        <ele>1166.99</ele>
        <time>2018-11-27T11:29:23Z</time>
      </trkpt>
      <trkpt lat="44.48766" lon="5.68203">
        <ele>1167.43</ele>
        <time>2018-11-27T11:29:27Z</time>
      </trkpt>
      <trkpt lat="44.48779" lon="5.68185">
        <ele>1169.57</ele>
        <time>2018-11-27T11:29:44Z</time>
      </trkpt>
      <trkpt lat="44.48788" lon="5.68173">
        <ele>1170.19</ele>
        <time>2018-11-27T11:29:56Z</time>
      </trkpt>
      <trkpt lat="44.48798" lon="5.68153">
        <ele>1172.84</ele>
        <time>2018-11-27T11:30:11Z</time>
      </trkpt>
      <trkpt lat="44.48798" lon="5.6815">
        <ele>1173.95</ele>
        <time>2018-11-27T11:30:13Z</time>
      </trkpt>
      <trkpt lat="44.48798" lon="5.68136">
        <ele>1174.22</ele>
        <time>2018-11-27T11:30:23Z</time>
      </trkpt>
      <trkpt lat="44.48799" lon="5.68115">
        <ele>1175.2</ele>
        <time>2018-11-27T11:30:36Z</time>
      </trkpt>
      <trkpt lat="44.48808" lon="5.68099">
        <ele>1175.48</ele>
        <time>2018-11-27T11:30:49Z</time>
      </trkpt>
      <trkpt lat="44.4882" lon="5.68089">
        <ele>1177.73</ele>
        <time>2018-11-27T11:31:07Z</time>
      </trkpt>
      <trkpt lat="44.48832" lon="5.68082">
        <ele>1179.45</ele>
        <time>2018-11-27T11:31:20Z</time>
      </trkpt>
      <trkpt lat="44.48838" lon="5.68078">
        <ele>1180.47</ele>
        <time>2018-11-27T11:31:24Z</time>
      </trkpt>
      <trkpt lat="44.48841" lon="5.68076">
        <ele>1180.85</ele>
        <time>2018-11-27T11:31:27Z</time>
      </trkpt>
      <trkpt lat="44.48848" lon="5.68072">
        <ele>1181.05</ele>
        <time>2018-11-27T11:31:33Z</time>
      </trkpt>
      <trkpt lat="44.48858" lon="5.68067">
        <ele>1181.81</ele>
        <time>2018-11-27T11:31:41Z</time>
      </trkpt>
      <trkpt lat="44.4888" lon="5.68059">
        <ele>1184.81</ele>
        <time>2018-11-27T11:31:58Z</time>
      </trkpt>
      <trkpt lat="44.48887" lon="5.68057">
        <ele>1185.47</ele>
        <time>2018-11-27T11:32:03Z</time>
      </trkpt>
      <trkpt lat="44.48898" lon="5.68051">
        <ele>1186.24</ele>
        <time>2018-11-27T11:32:11Z</time>
      </trkpt>
      <trkpt lat="44.48911" lon="5.6804">
        <ele>1187.72</ele>
        <time>2018-11-27T11:32:24Z</time>
      </trkpt>
      <trkpt lat="44.48926" lon="5.68035">
        <ele>1188.56</ele>
        <time>2018-11-27T11:32:36Z</time>
      </trkpt>
      <trkpt lat="44.48928" lon="5.68034">
        <ele>1188.81</ele>
        <time>2018-11-27T11:32:38Z</time>
      </trkpt>
      <trkpt lat="44.48949" lon="5.68036">
        <ele>1191.56</ele>
        <time>2018-11-27T11:32:53Z</time>
      </trkpt>
      <trkpt lat="44.4897" lon="5.68036">
        <ele>1193.08</ele>
        <time>2018-11-27T11:33:07Z</time>
      </trkpt>
      <trkpt lat="44.48992" lon="5.68032">
        <ele>1195.25</ele>
        <time>2018-11-27T11:33:23Z</time>
      </trkpt>
      <trkpt lat="44.48997" lon="5.6803">
        <ele>1195.66</ele>
        <time>2018-11-27T11:33:28Z</time>
      </trkpt>
      <trkpt lat="44.49013" lon="5.6803">
        <ele>1197.28</ele>
        <time>2018-11-27T11:33:41Z</time>
      </trkpt>
      <trkpt lat="44.49042" lon="5.68023">
        <ele>1199.35</ele>
        <time>2018-11-27T11:34:00Z</time>
      </trkpt>
      <trkpt lat="44.49064" lon="5.68016">
        <ele>1200.45</ele>
        <time>2018-11-27T11:34:14Z</time>
      </trkpt>
      <trkpt lat="44.4908" lon="5.67986">
        <ele>1200.86</ele>
        <time>2018-11-27T11:34:34Z</time>
      </trkpt>
      <trkpt lat="44.4909" lon="5.67966">
        <ele>1202.91</ele>
        <time>2018-11-27T11:34:47Z</time>
      </trkpt>
      <trkpt lat="44.49095" lon="5.67951">
        <ele>1204.19</ele>
        <time>2018-11-27T11:34:58Z</time>
      </trkpt>
      <trkpt lat="44.49104" lon="5.67936">
        <ele>1205.66</ele>
        <time>2018-11-27T11:35:08Z</time>
      </trkpt>
      <trkpt lat="44.49109" lon="5.67923">
        <ele>1206.66</ele>
        <time>2018-11-27T11:35:16Z</time>
      </trkpt>
      <trkpt lat="44.49116" lon="5.67917">
        <ele>1207.18</ele>
        <time>2018-11-27T11:35:21Z</time>
      </trkpt>
      <trkpt lat="44.49129" lon="5.67909">
        <ele>1208.09</ele>
        <time>2018-11-27T11:35:31Z</time>
      </trkpt>
      <trkpt lat="44.49146" lon="5.67899">
        <ele>1209.84</ele>
        <time>2018-11-27T11:35:44Z</time>
      </trkpt>
      <trkpt lat="44.49162" lon="5.67892">
        <ele>1212.36</ele>
        <time>2018-11-27T11:36:00Z</time>
      </trkpt>
      <trkpt lat="44.49174" lon="5.67885">
        <ele>1214.13</ele>
        <time>2018-11-27T11:36:11Z</time>
      </trkpt>
      <trkpt lat="44.49194" lon="5.67876">
        <ele>1215.77</ele>
        <time>2018-11-27T11:36:26Z</time>
      </trkpt>
      <trkpt lat="44.49213" lon="5.67872">
        <ele>1217.75</ele>
        <time>2018-11-27T11:36:39Z</time>
      </trkpt>
      <trkpt lat="44.49234" lon="5.67859">
        <ele>1219.19</ele>
        <time>2018-11-27T11:36:55Z</time>
      </trkpt>
      <trkpt lat="44.49254" lon="5.67842">
        <ele>1221.27</ele>
        <time>2018-11-27T11:37:11Z</time>
      </trkpt>
      <trkpt lat="44.49272" lon="5.67833">
        <ele>1222.63</ele>
        <time>2018-11-27T11:37:25Z</time>
      </trkpt>
      <trkpt lat="44.49288" lon="5.67824">
        <ele>1224.58</ele>
        <time>2018-11-27T11:37:38Z</time>
      </trkpt>
      <trkpt lat="44.49304" lon="5.67813">
        <ele>1226.23</ele>
        <time>2018-11-27T11:37:52Z</time>
      </trkpt>
      <trkpt lat="44.49327" lon="5.6781">
        <ele>1228.15</ele>
        <time>2018-11-27T11:38:07Z</time>
      </trkpt>
      <trkpt lat="44.49348" lon="5.6781">
        <ele>1230.05</ele>
        <time>2018-11-27T11:38:23Z</time>
      </trkpt>
      <trkpt lat="44.49356" lon="5.6781">
        <ele>1230.62</ele>
        <time>2018-11-27T11:38:28Z</time>
      </trkpt>
      <trkpt lat="44.49378" lon="5.67807">
        <ele>1232.02</ele>
        <time>2018-11-27T11:38:44Z</time>
      </trkpt>
      <trkpt lat="44.49397" lon="5.67798">
        <ele>1232.67</ele>
        <time>2018-11-27T11:38:57Z</time>
      </trkpt>
      <trkpt lat="44.49415" lon="5.67773">
        <ele>1234.61</ele>
        <time>2018-11-27T11:39:12Z</time>
      </trkpt>
      <trkpt lat="44.49433" lon="5.67756">
        <ele>1236.65</ele>
        <time>2018-11-27T11:39:26Z</time>
      </trkpt>
      <trkpt lat="44.49453" lon="5.67742">
        <ele>1238.64</ele>
        <time>2018-11-27T11:39:44Z</time>
      </trkpt>
      <trkpt lat="44.49454" lon="5.67741">
        <ele>1238.78</ele>
        <time>2018-11-27T11:39:45Z</time>
      </trkpt>
      <trkpt lat="44.49456" lon="5.67741">
        <ele>1239.01</ele>
        <time>2018-11-27T11:39:47Z</time>
      </trkpt>
      <trkpt lat="44.49463" lon="5.67748">
        <ele>1239.79</ele>
        <time>2018-11-27T11:39:58Z</time>
      </trkpt>
      <trkpt lat="44.49464" lon="5.67748">
        <ele>1239.71</ele>
        <time>2018-11-27T11:40:21Z</time>
      </trkpt>
      <trkpt lat="44.49463" lon="5.6775">
        <ele>1239.6</ele>
        <time>2018-11-27T11:40:50Z</time>
      </trkpt>
      <trkpt lat="44.49464" lon="5.67746">
        <ele>1239.41</ele>
        <time>2018-11-27T11:41:21Z</time>
      </trkpt>
      <trkpt lat="44.49464" lon="5.67743">
        <ele>1238.64</ele>
        <time>2018-11-27T11:41:38Z</time>
      </trkpt>
      <trkpt lat="44.49462" lon="5.67743">
        <ele>1239.62</ele>
        <time>2018-11-27T11:42:06Z</time>
      </trkpt>
      <trkpt lat="44.49465" lon="5.67746">
        <ele>1239.63</ele>
        <time>2018-11-27T11:42:30Z</time>
      </trkpt>
      <trkpt lat="44.49465" lon="5.67739">
        <ele>1238.96</ele>
        <time>2018-11-27T11:43:10Z</time>
      </trkpt>
      <trkpt lat="44.49467" lon="5.67737">
        <ele>1238.91</ele>
        <time>2018-11-27T11:43:32Z</time>
      </trkpt>
      <trkpt lat="44.49469" lon="5.67732">
        <ele>1238.59</ele>
        <time>2018-11-27T11:43:45Z</time>
      </trkpt>
      <trkpt lat="44.49478" lon="5.67716">
        <ele>1238.36</ele>
        <time>2018-11-27T11:44:00Z</time>
      </trkpt>
      <trkpt lat="44.49502" lon="5.6769">
        <ele>1240.03</ele>
        <time>2018-11-27T11:44:16Z</time>
      </trkpt>
      <trkpt lat="44.4953" lon="5.67664">
        <ele>1237.34</ele>
        <time>2018-11-27T11:44:27Z</time>
      </trkpt>
      <trkpt lat="44.49544" lon="5.67647">
        <ele>1234.03</ele>
        <time>2018-11-27T11:44:32Z</time>
      </trkpt>
      <trkpt lat="44.49557" lon="5.6763">
        <ele>1230.81</ele>
        <time>2018-11-27T11:44:36Z</time>
      </trkpt>
      <trkpt lat="44.49574" lon="5.67612">
        <ele>1228.27</ele>
        <time>2018-11-27T11:44:41Z</time>
      </trkpt>
      <trkpt lat="44.49593" lon="5.67595">
        <ele>1225.54</ele>
        <time>2018-11-27T11:44:47Z</time>
      </trkpt>
      <trkpt lat="44.49596" lon="5.67591">
        <ele>1225.01</ele>
        <time>2018-11-27T11:44:48Z</time>
      </trkpt>
      <trkpt lat="44.496" lon="5.67587">
        <ele>1223.9</ele>
        <time>2018-11-27T11:44:49Z</time>
      </trkpt>
      <trkpt lat="44.49602" lon="5.67583">
        <ele>1223.9</ele>
        <time>2018-11-27T11:44:50Z</time>
      </trkpt>
      <trkpt lat="44.49605" lon="5.67579">
        <ele>1222.56</ele>
        <time>2018-11-27T11:44:51Z</time>
      </trkpt>
      <trkpt lat="44.4961" lon="5.67577">
        <ele>1221.98</ele>
        <time>2018-11-27T11:44:52Z</time>
      </trkpt>
      <trkpt lat="44.49614" lon="5.67575">
        <ele>1221.46</ele>
        <time>2018-11-27T11:44:53Z</time>
      </trkpt>
      <trkpt lat="44.49619" lon="5.67573">
        <ele>1220.96</ele>
        <time>2018-11-27T11:44:54Z</time>
      </trkpt>
      <trkpt lat="44.49624" lon="5.67572">
        <ele>1220.44</ele>
        <time>2018-11-27T11:44:55Z</time>
      </trkpt>
      <trkpt lat="44.49655" lon="5.67565">
        <ele>1217.16</ele>
        <time>2018-11-27T11:45:01Z</time>
      </trkpt>
      <trkpt lat="44.4966" lon="5.67563">
        <ele>1216.57</ele>
        <time>2018-11-27T11:45:02Z</time>
      </trkpt>
      <trkpt lat="44.49678" lon="5.67551">
        <ele>1213.52</ele>
        <time>2018-11-27T11:45:06Z</time>
      </trkpt>
      <trkpt lat="44.49683" lon="5.67547">
        <ele>1212.76</ele>
        <time>2018-11-27T11:45:07Z</time>
      </trkpt>
      <trkpt lat="44.49688" lon="5.67545">
        <ele>1212.09</ele>
        <time>2018-11-27T11:45:08Z</time>
      </trkpt>
      <trkpt lat="44.49694" lon="5.67543">
        <ele>1211.51</ele>
        <time>2018-11-27T11:45:09Z</time>
      </trkpt>
      <trkpt lat="44.49698" lon="5.67541">
        <ele>1210.97</ele>
        <time>2018-11-27T11:45:10Z</time>
      </trkpt>
      <trkpt lat="44.49713" lon="5.67542">
        <ele>1209.01</ele>
        <time>2018-11-27T11:45:14Z</time>
      </trkpt>
      <trkpt lat="44.49714" lon="5.67544">
        <ele>1208</ele>
        <time>2018-11-27T11:45:15Z</time>
      </trkpt>
      <trkpt lat="44.49716" lon="5.67549">
        <ele>1207.09</ele>
        <time>2018-11-27T11:45:17Z</time>
      </trkpt>
      <trkpt lat="44.49711" lon="5.67554">
        <ele>1205.32</ele>
        <time>2018-11-27T11:45:25Z</time>
      </trkpt>
      <trkpt lat="44.49709" lon="5.67555">
        <ele>1205.1</ele>
        <time>2018-11-27T11:45:26Z</time>
      </trkpt>
      <trkpt lat="44.49707" lon="5.67557">
        <ele>1204.87</ele>
        <time>2018-11-27T11:45:27Z</time>
      </trkpt>
      <trkpt lat="44.49705" lon="5.67559">
        <ele>1204.57</ele>
        <time>2018-11-27T11:45:28Z</time>
      </trkpt>
      <trkpt lat="44.49705" lon="5.67561">
        <ele>1204.2</ele>
        <time>2018-11-27T11:45:29Z</time>
      </trkpt>
      <trkpt lat="44.49705" lon="5.67564">
        <ele>1203.78</ele>
        <time>2018-11-27T11:45:30Z</time>
      </trkpt>
      <trkpt lat="44.49704" lon="5.67566">
        <ele>1203.33</ele>
        <time>2018-11-27T11:45:31Z</time>
      </trkpt>
      <trkpt lat="44.49702" lon="5.6757">
        <ele>1202.88</ele>
        <time>2018-11-27T11:45:32Z</time>
      </trkpt>
      <trkpt lat="44.497" lon="5.67574">
        <ele>1202.47</ele>
        <time>2018-11-27T11:45:33Z</time>
      </trkpt>
      <trkpt lat="44.49699" lon="5.67577">
        <ele>1202.08</ele>
        <time>2018-11-27T11:45:34Z</time>
      </trkpt>
      <trkpt lat="44.49697" lon="5.67582">
        <ele>1201.66</ele>
        <time>2018-11-27T11:45:35Z</time>
      </trkpt>
      <trkpt lat="44.49694" lon="5.67585">
        <ele>1201.18</ele>
        <time>2018-11-27T11:45:36Z</time>
      </trkpt>
      <trkpt lat="44.49691" lon="5.67588">
        <ele>1200.24</ele>
        <time>2018-11-27T11:45:37Z</time>
      </trkpt>
      <trkpt lat="44.49689" lon="5.67591">
        <ele>1200.24</ele>
        <time>2018-11-27T11:45:38Z</time>
      </trkpt>
      <trkpt lat="44.49686" lon="5.67594">
        <ele>1199.16</ele>
        <time>2018-11-27T11:45:39Z</time>
      </trkpt>
      <trkpt lat="44.49683" lon="5.67598">
        <ele>1198.63</ele>
        <time>2018-11-27T11:45:40Z</time>
      </trkpt>
      <trkpt lat="44.4968" lon="5.67603">
        <ele>1198.12</ele>
        <time>2018-11-27T11:45:41Z</time>
      </trkpt>
      <trkpt lat="44.49674" lon="5.67615">
        <ele>1197.01</ele>
        <time>2018-11-27T11:45:43Z</time>
      </trkpt>
      <trkpt lat="44.49671" lon="5.67621">
        <ele>1196.45</ele>
        <time>2018-11-27T11:45:44Z</time>
      </trkpt>
      <trkpt lat="44.49668" lon="5.67628">
        <ele>1195.91</ele>
        <time>2018-11-27T11:45:45Z</time>
      </trkpt>
      <trkpt lat="44.49656" lon="5.67656">
        <ele>1193.14</ele>
        <time>2018-11-27T11:45:49Z</time>
      </trkpt>
      <trkpt lat="44.49652" lon="5.67663">
        <ele>1192.34</ele>
        <time>2018-11-27T11:45:50Z</time>
      </trkpt>
      <trkpt lat="44.49649" lon="5.6767">
        <ele>1191.55</ele>
        <time>2018-11-27T11:45:51Z</time>
      </trkpt>
      <trkpt lat="44.49633" lon="5.67699">
        <ele>1188.69</ele>
        <time>2018-11-27T11:45:55Z</time>
      </trkpt>
      <trkpt lat="44.49628" lon="5.67705">
        <ele>1187.95</ele>
        <time>2018-11-27T11:45:56Z</time>
      </trkpt>
      <trkpt lat="44.49613" lon="5.67729">
        <ele>1185.01</ele>
        <time>2018-11-27T11:46:00Z</time>
      </trkpt>
      <trkpt lat="44.49611" lon="5.67735">
        <ele>1184.4</ele>
        <time>2018-11-27T11:46:01Z</time>
      </trkpt>
      <trkpt lat="44.49607" lon="5.6774">
        <ele>1183.74</ele>
        <time>2018-11-27T11:46:02Z</time>
      </trkpt>
      <trkpt lat="44.49604" lon="5.67745">
        <ele>1182.44</ele>
        <time>2018-11-27T11:46:03Z</time>
      </trkpt>
      <trkpt lat="44.49601" lon="5.6775">
        <ele>1182.44</ele>
        <time>2018-11-27T11:46:04Z</time>
      </trkpt>
      <trkpt lat="44.49599" lon="5.67756">
        <ele>1181.08</ele>
        <time>2018-11-27T11:46:05Z</time>
      </trkpt>
      <trkpt lat="44.49597" lon="5.67762">
        <ele>1180.42</ele>
        <time>2018-11-27T11:46:06Z</time>
      </trkpt>
      <trkpt lat="44.4959" lon="5.67795">
        <ele>1177.43</ele>
        <time>2018-11-27T11:46:11Z</time>
      </trkpt>
      <trkpt lat="44.49585" lon="5.67826">
        <ele>1174.86</ele>
        <time>2018-11-27T11:46:15Z</time>
      </trkpt>
      <trkpt lat="44.49583" lon="5.67833">
        <ele>1174.22</ele>
        <time>2018-11-27T11:46:16Z</time>
      </trkpt>
      <trkpt lat="44.49581" lon="5.6784">
        <ele>1173.61</ele>
        <time>2018-11-27T11:46:17Z</time>
      </trkpt>
      <trkpt lat="44.4958" lon="5.67847">
        <ele>1173</ele>
        <time>2018-11-27T11:46:18Z</time>
      </trkpt>
      <trkpt lat="44.49579" lon="5.67854">
        <ele>1172.37</ele>
        <time>2018-11-27T11:46:19Z</time>
      </trkpt>
      <trkpt lat="44.49578" lon="5.67861">
        <ele>1171.77</ele>
        <time>2018-11-27T11:46:20Z</time>
      </trkpt>
      <trkpt lat="44.49569" lon="5.67892">
        <ele>1169.54</ele>
        <time>2018-11-27T11:46:24Z</time>
      </trkpt>
      <trkpt lat="44.49558" lon="5.67925">
        <ele>1166.03</ele>
        <time>2018-11-27T11:46:29Z</time>
      </trkpt>
      <trkpt lat="44.49558" lon="5.67932">
        <ele>1164.75</ele>
        <time>2018-11-27T11:46:30Z</time>
      </trkpt>
      <trkpt lat="44.49557" lon="5.67938">
        <ele>1164.18</ele>
        <time>2018-11-27T11:46:31Z</time>
      </trkpt>
      <trkpt lat="44.49557" lon="5.67943">
        <ele>1163.58</ele>
        <time>2018-11-27T11:46:32Z</time>
      </trkpt>
      <trkpt lat="44.49554" lon="5.6797">
        <ele>1160.5</ele>
        <time>2018-11-27T11:46:37Z</time>
      </trkpt>
      <trkpt lat="44.49551" lon="5.67984">
        <ele>1159.34</ele>
        <time>2018-11-27T11:46:39Z</time>
      </trkpt>
      <trkpt lat="44.49549" lon="5.6799">
        <ele>1158.76</ele>
        <time>2018-11-27T11:46:40Z</time>
      </trkpt>
      <trkpt lat="44.49546" lon="5.67996">
        <ele>1158.2</ele>
        <time>2018-11-27T11:46:41Z</time>
      </trkpt>
      <trkpt lat="44.49543" lon="5.68">
        <ele>1157.64</ele>
        <time>2018-11-27T11:46:42Z</time>
      </trkpt>
      <trkpt lat="44.49541" lon="5.68004">
        <ele>1157.1</ele>
        <time>2018-11-27T11:46:43Z</time>
      </trkpt>
      <trkpt lat="44.49539" lon="5.68006">
        <ele>1156.64</ele>
        <time>2018-11-27T11:46:44Z</time>
      </trkpt>
      <trkpt lat="44.49537" lon="5.68011">
        <ele>1155.66</ele>
        <time>2018-11-27T11:46:46Z</time>
      </trkpt>
      <trkpt lat="44.49537" lon="5.68014">
        <ele>1155.12</ele>
        <time>2018-11-27T11:46:47Z</time>
      </trkpt>
      <trkpt lat="44.49538" lon="5.68016">
        <ele>1154.57</ele>
        <time>2018-11-27T11:46:48Z</time>
      </trkpt>
      <trkpt lat="44.4954" lon="5.68017">
        <ele>1154.08</ele>
        <time>2018-11-27T11:46:49Z</time>
      </trkpt>
      <trkpt lat="44.49542" lon="5.68016">
        <ele>1153.66</ele>
        <time>2018-11-27T11:46:50Z</time>
      </trkpt>
      <trkpt lat="44.49544" lon="5.68014">
        <ele>1153.29</ele>
        <time>2018-11-27T11:46:51Z</time>
      </trkpt>
      <trkpt lat="44.49547" lon="5.68011">
        <ele>1152.91</ele>
        <time>2018-11-27T11:46:52Z</time>
      </trkpt>
      <trkpt lat="44.49549" lon="5.68007">
        <ele>1152.53</ele>
        <time>2018-11-27T11:46:53Z</time>
      </trkpt>
      <trkpt lat="44.49554" lon="5.67999">
        <ele>1151.46</ele>
        <time>2018-11-27T11:46:55Z</time>
      </trkpt>
      <trkpt lat="44.49556" lon="5.67993">
        <ele>1151.08</ele>
        <time>2018-11-27T11:46:56Z</time>
      </trkpt>
      <trkpt lat="44.49559" lon="5.67988">
        <ele>1150.68</ele>
        <time>2018-11-27T11:46:57Z</time>
      </trkpt>
      <trkpt lat="44.49561" lon="5.67982">
        <ele>1150.28</ele>
        <time>2018-11-27T11:46:58Z</time>
      </trkpt>
      <trkpt lat="44.49563" lon="5.67976">
        <ele>1149.88</ele>
        <time>2018-11-27T11:46:59Z</time>
      </trkpt>
      <trkpt lat="44.49568" lon="5.67965">
        <ele>1149.02</ele>
        <time>2018-11-27T11:47:01Z</time>
      </trkpt>
      <trkpt lat="44.49571" lon="5.67959">
        <ele>1148.61</ele>
        <time>2018-11-27T11:47:02Z</time>
      </trkpt>
      <trkpt lat="44.49582" lon="5.67925">
        <ele>1147.08</ele>
        <time>2018-11-27T11:47:07Z</time>
      </trkpt>
      <trkpt lat="44.49584" lon="5.67911">
        <ele>1146.06</ele>
        <time>2018-11-27T11:47:11Z</time>
      </trkpt>
      <trkpt lat="44.49585" lon="5.67909">
        <ele>1145.9</ele>
        <time>2018-11-27T11:47:12Z</time>
      </trkpt>
      <trkpt lat="44.49586" lon="5.67907">
        <ele>1145.78</ele>
        <time>2018-11-27T11:47:13Z</time>
      </trkpt>
      <trkpt lat="44.49587" lon="5.67904">
        <ele>1145.69</ele>
        <time>2018-11-27T11:47:14Z</time>
      </trkpt>
      <trkpt lat="44.49588" lon="5.67901">
        <ele>1145.68</ele>
        <time>2018-11-27T11:47:15Z</time>
      </trkpt>
      <trkpt lat="44.49592" lon="5.67893">
        <ele>1145.94</ele>
        <time>2018-11-27T11:47:18Z</time>
      </trkpt>
      <trkpt lat="44.49593" lon="5.6789">
        <ele>1146.07</ele>
        <time>2018-11-27T11:47:19Z</time>
      </trkpt>
      <trkpt lat="44.49594" lon="5.67888">
        <ele>1146.23</ele>
        <time>2018-11-27T11:47:20Z</time>
      </trkpt>
      <trkpt lat="44.49596" lon="5.67887">
        <ele>1146.39</ele>
        <time>2018-11-27T11:47:21Z</time>
      </trkpt>
      <trkpt lat="44.49598" lon="5.67883">
        <ele>1146.63</ele>
        <time>2018-11-27T11:47:23Z</time>
      </trkpt>
      <trkpt lat="44.49599" lon="5.67881">
        <ele>1146.76</ele>
        <time>2018-11-27T11:47:24Z</time>
      </trkpt>
      <trkpt lat="44.496" lon="5.67878">
        <ele>1146.85</ele>
        <time>2018-11-27T11:47:25Z</time>
      </trkpt>
      <trkpt lat="44.49602" lon="5.67877">
        <ele>1146.94</ele>
        <time>2018-11-27T11:47:26Z</time>
      </trkpt>
      <trkpt lat="44.49603" lon="5.67874">
        <ele>1147.03</ele>
        <time>2018-11-27T11:47:27Z</time>
      </trkpt>
      <trkpt lat="44.49605" lon="5.67873">
        <ele>1147.11</ele>
        <time>2018-11-27T11:47:28Z</time>
      </trkpt>
      <trkpt lat="44.49607" lon="5.67872">
        <ele>1147.18</ele>
        <time>2018-11-27T11:47:29Z</time>
      </trkpt>
      <trkpt lat="44.49609" lon="5.67871">
        <ele>1147.26</ele>
        <time>2018-11-27T11:47:30Z</time>
      </trkpt>
      <trkpt lat="44.4961" lon="5.6787">
        <ele>1147.33</ele>
        <time>2018-11-27T11:47:31Z</time>
      </trkpt>
      <trkpt lat="44.49617" lon="5.67871">
        <ele>1147.38</ele>
        <time>2018-11-27T11:47:46Z</time>
      </trkpt>
      <trkpt lat="44.49622" lon="5.67872">
        <ele>1147.57</ele>
        <time>2018-11-27T11:48:16Z</time>
      </trkpt>
      <trkpt lat="44.49617" lon="5.67865">
        <ele>1147.88</ele>
        <time>2018-11-27T11:48:36Z</time>
      </trkpt>
      <trkpt lat="44.49619" lon="5.67865">
        <ele>1147.94</ele>
        <time>2018-11-27T11:48:37Z</time>
      </trkpt>
      <trkpt lat="44.49621" lon="5.67865">
        <ele>1147.98</ele>
        <time>2018-11-27T11:48:38Z</time>
      </trkpt>
      <trkpt lat="44.49624" lon="5.67865">
        <ele>1148</ele>
        <time>2018-11-27T11:48:39Z</time>
      </trkpt>
      <trkpt lat="44.49627" lon="5.67866">
        <ele>1147.97</ele>
        <time>2018-11-27T11:48:40Z</time>
      </trkpt>
      <trkpt lat="44.49634" lon="5.67867">
        <ele>1147.77</ele>
        <time>2018-11-27T11:48:42Z</time>
      </trkpt>
      <trkpt lat="44.49639" lon="5.67867">
        <ele>1147.55</ele>
        <time>2018-11-27T11:48:43Z</time>
      </trkpt>
      <trkpt lat="44.49671" lon="5.67868">
        <ele>1144.45</ele>
        <time>2018-11-27T11:48:50Z</time>
      </trkpt>
      <trkpt lat="44.49676" lon="5.67877">
        <ele>1143.06</ele>
        <time>2018-11-27T11:48:54Z</time>
      </trkpt>
      <trkpt lat="44.49676" lon="5.67881">
        <ele>1142.86</ele>
        <time>2018-11-27T11:48:55Z</time>
      </trkpt>
      <trkpt lat="44.49671" lon="5.67909">
        <ele>1139.99</ele>
        <time>2018-11-27T11:49:04Z</time>
      </trkpt>
      <trkpt lat="44.49672" lon="5.67917">
        <ele>1139.04</ele>
        <time>2018-11-27T11:49:09Z</time>
      </trkpt>
      <trkpt lat="44.49674" lon="5.67932">
        <ele>1138.31</ele>
        <time>2018-11-27T11:49:13Z</time>
      </trkpt>
      <trkpt lat="44.49675" lon="5.67936">
        <ele>1137.98</ele>
        <time>2018-11-27T11:49:14Z</time>
      </trkpt>
      <trkpt lat="44.49676" lon="5.67939">
        <ele>1137.7</ele>
        <time>2018-11-27T11:49:15Z</time>
      </trkpt>
      <trkpt lat="44.49676" lon="5.67943">
        <ele>1137.39</ele>
        <time>2018-11-27T11:49:16Z</time>
      </trkpt>
      <trkpt lat="44.49677" lon="5.67945">
        <ele>1136.98</ele>
        <time>2018-11-27T11:49:17Z</time>
      </trkpt>
      <trkpt lat="44.49677" lon="5.67947">
        <ele>1136</ele>
        <time>2018-11-27T11:49:18Z</time>
      </trkpt>
      <trkpt lat="44.49678" lon="5.6795">
        <ele>1135.51</ele>
        <time>2018-11-27T11:49:19Z</time>
      </trkpt>
      <trkpt lat="44.49677" lon="5.67953">
        <ele>1135.03</ele>
        <time>2018-11-27T11:49:20Z</time>
      </trkpt>
      <trkpt lat="44.49678" lon="5.67957">
        <ele>1134.51</ele>
        <time>2018-11-27T11:49:21Z</time>
      </trkpt>
      <trkpt lat="44.49679" lon="5.67961">
        <ele>1133.99</ele>
        <time>2018-11-27T11:49:22Z</time>
      </trkpt>
      <trkpt lat="44.4968" lon="5.67965">
        <ele>1133.49</ele>
        <time>2018-11-27T11:49:23Z</time>
      </trkpt>
      <trkpt lat="44.49681" lon="5.67968">
        <ele>1132.93</ele>
        <time>2018-11-27T11:49:24Z</time>
      </trkpt>
      <trkpt lat="44.49686" lon="5.67988">
        <ele>1129.73</ele>
        <time>2018-11-27T11:49:29Z</time>
      </trkpt>
      <trkpt lat="44.49688" lon="5.67992">
        <ele>1129.13</ele>
        <time>2018-11-27T11:49:30Z</time>
      </trkpt>
      <trkpt lat="44.49694" lon="5.68018">
        <ele>1125.99</ele>
        <time>2018-11-27T11:49:35Z</time>
      </trkpt>
      <trkpt lat="44.49694" lon="5.68022">
        <ele>1125.3</ele>
        <time>2018-11-27T11:49:36Z</time>
      </trkpt>
      <trkpt lat="44.49695" lon="5.68027">
        <ele>1124.54</ele>
        <time>2018-11-27T11:49:37Z</time>
      </trkpt>
      <trkpt lat="44.49696" lon="5.68033">
        <ele>1123.73</ele>
        <time>2018-11-27T11:49:38Z</time>
      </trkpt>
      <trkpt lat="44.49697" lon="5.68037">
        <ele>1122.89</ele>
        <time>2018-11-27T11:49:39Z</time>
      </trkpt>
      <trkpt lat="44.49698" lon="5.68042">
        <ele>1122.07</ele>
        <time>2018-11-27T11:49:40Z</time>
      </trkpt>
      <trkpt lat="44.49698" lon="5.68046">
        <ele>1121.25</ele>
        <time>2018-11-27T11:49:41Z</time>
      </trkpt>
      <trkpt lat="44.49698" lon="5.6805">
        <ele>1120.43</ele>
        <time>2018-11-27T11:49:42Z</time>
      </trkpt>
      <trkpt lat="44.49698" lon="5.68054">
        <ele>1119.62</ele>
        <time>2018-11-27T11:49:43Z</time>
      </trkpt>
      <trkpt lat="44.49699" lon="5.68058">
        <ele>1118.13</ele>
        <time>2018-11-27T11:49:44Z</time>
      </trkpt>
      <trkpt lat="44.497" lon="5.6806">
        <ele>1117.39</ele>
        <time>2018-11-27T11:49:45Z</time>
      </trkpt>
      <trkpt lat="44.49701" lon="5.68062">
        <ele>1116.56</ele>
        <time>2018-11-27T11:49:46Z</time>
      </trkpt>
      <trkpt lat="44.49705" lon="5.6808">
        <ele>1113.54</ele>
        <time>2018-11-27T11:49:50Z</time>
      </trkpt>
      <trkpt lat="44.49712" lon="5.68099">
        <ele>1110.29</ele>
        <time>2018-11-27T11:49:54Z</time>
      </trkpt>
      <trkpt lat="44.49717" lon="5.68118">
        <ele>1107.51</ele>
        <time>2018-11-27T11:49:57Z</time>
      </trkpt>
      <trkpt lat="44.49719" lon="5.68124">
        <ele>1106.57</ele>
        <time>2018-11-27T11:49:58Z</time>
      </trkpt>
      <trkpt lat="44.49719" lon="5.68131">
        <ele>1105.59</ele>
        <time>2018-11-27T11:49:59Z</time>
      </trkpt>
      <trkpt lat="44.49718" lon="5.68159">
        <ele>1101.64</ele>
        <time>2018-11-27T11:50:03Z</time>
      </trkpt>
      <trkpt lat="44.49716" lon="5.68176">
        <ele>1098.54</ele>
        <time>2018-11-27T11:50:06Z</time>
      </trkpt>
      <trkpt lat="44.49717" lon="5.68187">
        <ele>1094.48</ele>
        <time>2018-11-27T11:50:09Z</time>
      </trkpt>
      <trkpt lat="44.49715" lon="5.68202">
        <ele>1091.14</ele>
        <time>2018-11-27T11:50:13Z</time>
      </trkpt>
      <trkpt lat="44.49711" lon="5.68223">
        <ele>1087.51</ele>
        <time>2018-11-27T11:50:18Z</time>
      </trkpt>
      <trkpt lat="44.49708" lon="5.68237">
        <ele>1084.39</ele>
        <time>2018-11-27T11:50:22Z</time>
      </trkpt>
      <trkpt lat="44.49705" lon="5.68251">
        <ele>1081.12</ele>
        <time>2018-11-27T11:50:26Z</time>
      </trkpt>
      <trkpt lat="44.49703" lon="5.6827">
        <ele>1077.76</ele>
        <time>2018-11-27T11:50:31Z</time>
      </trkpt>
      <trkpt lat="44.49703" lon="5.68274">
        <ele>1076.97</ele>
        <time>2018-11-27T11:50:32Z</time>
      </trkpt>
      <trkpt lat="44.4971" lon="5.68282">
        <ele>1071.92</ele>
        <time>2018-11-27T11:50:37Z</time>
      </trkpt>
      <trkpt lat="44.49716" lon="5.68289">
        <ele>1069.47</ele>
        <time>2018-11-27T11:50:41Z</time>
      </trkpt>
      <trkpt lat="44.49727" lon="5.68288">
        <ele>1065.35</ele>
        <time>2018-11-27T11:50:48Z</time>
      </trkpt>
      <trkpt lat="44.49734" lon="5.68284">
        <ele>1063.61</ele>
        <time>2018-11-27T11:50:51Z</time>
      </trkpt>
      <trkpt lat="44.49742" lon="5.68284">
        <ele>1061.85</ele>
        <time>2018-11-27T11:50:54Z</time>
      </trkpt>
      <trkpt lat="44.49751" lon="5.68293">
        <ele>1058.19</ele>
        <time>2018-11-27T11:50:58Z</time>
      </trkpt>
      <trkpt lat="44.49762" lon="5.68316">
        <ele>1053.89</ele>
        <time>2018-11-27T11:51:04Z</time>
      </trkpt>
      <trkpt lat="44.49768" lon="5.68331">
        <ele>1051.05</ele>
        <time>2018-11-27T11:51:08Z</time>
      </trkpt>
      <trkpt lat="44.49786" lon="5.68338">
        <ele>1047.11</ele>
        <time>2018-11-27T11:51:13Z</time>
      </trkpt>
      <trkpt lat="44.49803" lon="5.68343">
        <ele>1044.06</ele>
        <time>2018-11-27T11:51:17Z</time>
      </trkpt>
      <trkpt lat="44.49811" lon="5.68345">
        <ele>1041.36</ele>
        <time>2018-11-27T11:51:20Z</time>
      </trkpt>
      <trkpt lat="44.49824" lon="5.68347">
        <ele>1037.19</ele>
        <time>2018-11-27T11:51:25Z</time>
      </trkpt>
      <trkpt lat="44.49841" lon="5.68363">
        <ele>1033.45</ele>
        <time>2018-11-27T11:51:34Z</time>
      </trkpt>
      <trkpt lat="44.49848" lon="5.68378">
        <ele>1030.26</ele>
        <time>2018-11-27T11:51:38Z</time>
      </trkpt>
      <trkpt lat="44.49851" lon="5.68384">
        <ele>1028.55</ele>
        <time>2018-11-27T11:51:40Z</time>
      </trkpt>
      <trkpt lat="44.49861" lon="5.68401">
        <ele>1024.24</ele>
        <time>2018-11-27T11:51:46Z</time>
      </trkpt>
      <trkpt lat="44.49863" lon="5.68417">
        <ele>1020.74</ele>
        <time>2018-11-27T11:51:50Z</time>
      </trkpt>
      <trkpt lat="44.49865" lon="5.68429">
        <ele>1018.77</ele>
        <time>2018-11-27T11:51:53Z</time>
      </trkpt>
      <trkpt lat="44.49872" lon="5.68442">
        <ele>1016.49</ele>
        <time>2018-11-27T11:51:57Z</time>
      </trkpt>
      <trkpt lat="44.4988" lon="5.68477">
        <ele>1012.89</ele>
        <time>2018-11-27T11:52:03Z</time>
      </trkpt>
      <trkpt lat="44.49883" lon="5.68504">
        <ele>1009.77</ele>
        <time>2018-11-27T11:52:08Z</time>
      </trkpt>
      <trkpt lat="44.49888" lon="5.68521">
        <ele>1006.6</ele>
        <time>2018-11-27T11:52:12Z</time>
      </trkpt>
      <trkpt lat="44.49893" lon="5.6854">
        <ele>1003.53</ele>
        <time>2018-11-27T11:52:17Z</time>
      </trkpt>
      <trkpt lat="44.49896" lon="5.68567">
        <ele>1000.18</ele>
        <time>2018-11-27T11:52:23Z</time>
      </trkpt>
      <trkpt lat="44.49902" lon="5.68589">
        <ele>996.97</ele>
        <time>2018-11-27T11:52:28Z</time>
      </trkpt>
      <trkpt lat="44.49909" lon="5.68609">
        <ele>993.96</ele>
        <time>2018-11-27T11:52:33Z</time>
      </trkpt>
      <trkpt lat="44.49913" lon="5.68624">
        <ele>990.48</ele>
        <time>2018-11-27T11:52:38Z</time>
      </trkpt>
      <trkpt lat="44.49914" lon="5.68625">
        <ele>987.44</ele>
        <time>2018-11-27T11:52:51Z</time>
      </trkpt>
      <trkpt lat="44.49912" lon="5.68624">
        <ele>987.47</ele>
        <time>2018-11-27T11:53:27Z</time>
      </trkpt>
      <trkpt lat="44.4991" lon="5.68626">
        <ele>987.53</ele>
        <time>2018-11-27T11:54:02Z</time>
      </trkpt>
      <trkpt lat="44.49909" lon="5.68626">
        <ele>988.12</ele>
        <time>2018-11-27T11:54:34Z</time>
      </trkpt>
      <trkpt lat="44.49911" lon="5.68622">
        <ele>988.18</ele>
        <time>2018-11-27T11:55:00Z</time>
      </trkpt>
      <trkpt lat="44.49916" lon="5.68619">
        <ele>988.7</ele>
        <time>2018-11-27T11:55:18Z</time>
      </trkpt>
      <trkpt lat="44.49918" lon="5.68617">
        <ele>988.58</ele>
        <time>2018-11-27T11:55:28Z</time>
      </trkpt>
      <trkpt lat="44.49925" lon="5.68606">
        <ele>988.71</ele>
        <time>2018-11-27T11:55:34Z</time>
      </trkpt>
      <trkpt lat="44.49931" lon="5.68594">
        <ele>988.8</ele>
        <time>2018-11-27T11:55:41Z</time>
      </trkpt>
      <trkpt lat="44.49939" lon="5.68575">
        <ele>988.53</ele>
        <time>2018-11-27T11:55:47Z</time>
      </trkpt>
      <trkpt lat="44.49957" lon="5.68553">
        <ele>987.14</ele>
        <time>2018-11-27T11:55:57Z</time>
      </trkpt>
      <trkpt lat="44.49967" lon="5.68548">
        <ele>988.41</ele>
        <time>2018-11-27T11:56:09Z</time>
      </trkpt>
      <trkpt lat="44.49981" lon="5.68543">
        <ele>991.49</ele>
        <time>2018-11-27T11:56:24Z</time>
      </trkpt>
      <trkpt lat="44.49993" lon="5.68535">
        <ele>992.59</ele>
        <time>2018-11-27T11:56:39Z</time>
      </trkpt>
      <trkpt lat="44.49995" lon="5.68533">
        <ele>992.67</ele>
        <time>2018-11-27T11:56:42Z</time>
      </trkpt>
      <trkpt lat="44.50001" lon="5.68514">
        <ele>993.94</ele>
        <time>2018-11-27T11:56:57Z</time>
      </trkpt>
      <trkpt lat="44.50004" lon="5.68501">
        <ele>996.18</ele>
        <time>2018-11-27T11:57:11Z</time>
      </trkpt>
      <trkpt lat="44.50011" lon="5.68484">
        <ele>998.42</ele>
        <time>2018-11-27T11:57:27Z</time>
      </trkpt>
      <trkpt lat="44.50012" lon="5.68466">
        <ele>1001.31</ele>
        <time>2018-11-27T11:57:46Z</time>
      </trkpt>
      <trkpt lat="44.50011" lon="5.68444">
        <ele>1004.15</ele>
        <time>2018-11-27T11:58:06Z</time>
      </trkpt>
      <trkpt lat="44.5001" lon="5.68433">
        <ele>1004.7</ele>
        <time>2018-11-27T11:58:27Z</time>
      </trkpt>
      <trkpt lat="44.50009" lon="5.68414">
        <ele>1005.71</ele>
        <time>2018-11-27T11:58:41Z</time>
      </trkpt>
      <trkpt lat="44.50009" lon="5.68402">
        <ele>1006.47</ele>
        <time>2018-11-27T11:58:50Z</time>
      </trkpt>
      <trkpt lat="44.50011" lon="5.68392">
        <ele>1007.15</ele>
        <time>2018-11-27T11:58:57Z</time>
      </trkpt>
      <trkpt lat="44.50018" lon="5.68377">
        <ele>1009.89</ele>
        <time>2018-11-27T11:59:13Z</time>
      </trkpt>
      <trkpt lat="44.50027" lon="5.68365">
        <ele>1012.81</ele>
        <time>2018-11-27T11:59:29Z</time>
      </trkpt>
      <trkpt lat="44.50032" lon="5.68359">
        <ele>1014.67</ele>
        <time>2018-11-27T11:59:48Z</time>
      </trkpt>
      <trkpt lat="44.50033" lon="5.68357">
        <ele>1015.38</ele>
        <time>2018-11-27T12:00:18Z</time>
      </trkpt>
      <trkpt lat="44.50037" lon="5.68338">
        <ele>1017.22</ele>
        <time>2018-11-27T12:00:37Z</time>
      </trkpt>
      <trkpt lat="44.50035" lon="5.68325">
        <ele>1018.55</ele>
        <time>2018-11-27T12:00:51Z</time>
      </trkpt>
      <trkpt lat="44.50037" lon="5.68315">
        <ele>1018.56</ele>
        <time>2018-11-27T12:00:59Z</time>
      </trkpt>
      <trkpt lat="44.50036" lon="5.68295">
        <ele>1021.48</ele>
        <time>2018-11-27T12:01:16Z</time>
      </trkpt>
      <trkpt lat="44.50034" lon="5.68282">
        <ele>1023.28</ele>
        <time>2018-11-27T12:01:30Z</time>
      </trkpt>
      <trkpt lat="44.5003" lon="5.68271">
        <ele>1026.15</ele>
        <time>2018-11-27T12:01:52Z</time>
      </trkpt>
      <trkpt lat="44.50021" lon="5.68259">
        <ele>1027.79</ele>
        <time>2018-11-27T12:02:10Z</time>
      </trkpt>
      <trkpt lat="44.50013" lon="5.68244">
        <ele>1030.25</ele>
        <time>2018-11-27T12:02:29Z</time>
      </trkpt>
      <trkpt lat="44.50011" lon="5.68233">
        <ele>1033.32</ele>
        <time>2018-11-27T12:02:42Z</time>
      </trkpt>
      <trkpt lat="44.50009" lon="5.68216">
        <ele>1036.54</ele>
        <time>2018-11-27T12:03:02Z</time>
      </trkpt>
      <trkpt lat="44.5001" lon="5.68203">
        <ele>1039.67</ele>
        <time>2018-11-27T12:03:17Z</time>
      </trkpt>
      <trkpt lat="44.50009" lon="5.68186">
        <ele>1040.86</ele>
        <time>2018-11-27T12:03:33Z</time>
      </trkpt>
      <trkpt lat="44.50013" lon="5.68171">
        <ele>1042.58</ele>
        <time>2018-11-27T12:03:46Z</time>
      </trkpt>
      <trkpt lat="44.50016" lon="5.68173">
        <ele>1044.11</ele>
        <time>2018-11-27T12:04:17Z</time>
      </trkpt>
      <trkpt lat="44.50016" lon="5.68167">
        <ele>1043.42</ele>
        <time>2018-11-27T12:04:44Z</time>
      </trkpt>
      <trkpt lat="44.50013" lon="5.68158">
        <ele>1043.97</ele>
        <time>2018-11-27T12:05:06Z</time>
      </trkpt>
      <trkpt lat="44.50011" lon="5.68137">
        <ele>1042.5</ele>
        <time>2018-11-27T12:05:20Z</time>
      </trkpt>
      <trkpt lat="44.50011" lon="5.68136">
        <ele>1042.49</ele>
        <time>2018-11-27T12:05:21Z</time>
      </trkpt>
      <trkpt lat="44.5001" lon="5.6812">
        <ele>1043.25</ele>
        <time>2018-11-27T12:05:28Z</time>
      </trkpt>
      <trkpt lat="44.50013" lon="5.68106">
        <ele>1044.49</ele>
        <time>2018-11-27T12:05:35Z</time>
      </trkpt>
      <trkpt lat="44.50015" lon="5.68098">
        <ele>1044.79</ele>
        <time>2018-11-27T12:05:39Z</time>
      </trkpt>
      <trkpt lat="44.50016" lon="5.68088">
        <ele>1045.42</ele>
        <time>2018-11-27T12:05:43Z</time>
      </trkpt>
      <trkpt lat="44.50019" lon="5.68074">
        <ele>1047.38</ele>
        <time>2018-11-27T12:05:51Z</time>
      </trkpt>
      <trkpt lat="44.50019" lon="5.68062">
        <ele>1048.27</ele>
        <time>2018-11-27T12:05:58Z</time>
      </trkpt>
      <trkpt lat="44.50019" lon="5.68058">
        <ele>1048.51</ele>
        <time>2018-11-27T12:06:00Z</time>
      </trkpt>
      <trkpt lat="44.50022" lon="5.6805">
        <ele>1048.91</ele>
        <time>2018-11-27T12:06:06Z</time>
      </trkpt>
      <trkpt lat="44.50024" lon="5.68042">
        <ele>1048.73</ele>
        <time>2018-11-27T12:06:10Z</time>
      </trkpt>
      <trkpt lat="44.50027" lon="5.6803">
        <ele>1049.24</ele>
        <time>2018-11-27T12:06:16Z</time>
      </trkpt>
      <trkpt lat="44.50028" lon="5.68018">
        <ele>1049.57</ele>
        <time>2018-11-27T12:06:21Z</time>
      </trkpt>
      <trkpt lat="44.50031" lon="5.67998">
        <ele>1050.61</ele>
        <time>2018-11-27T12:06:31Z</time>
      </trkpt>
      <trkpt lat="44.50033" lon="5.67979">
        <ele>1050.89</ele>
        <time>2018-11-27T12:06:40Z</time>
      </trkpt>
      <trkpt lat="44.50035" lon="5.67961">
        <ele>1051.04</ele>
        <time>2018-11-27T12:06:46Z</time>
      </trkpt>
      <trkpt lat="44.50037" lon="5.67947">
        <ele>1051.15</ele>
        <time>2018-11-27T12:06:57Z</time>
      </trkpt>
      <trkpt lat="44.50038" lon="5.67945">
        <ele>1051.23</ele>
        <time>2018-11-27T12:06:58Z</time>
      </trkpt>
      <trkpt lat="44.50039" lon="5.67935">
        <ele>1051.35</ele>
        <time>2018-11-27T12:07:02Z</time>
      </trkpt>
      <trkpt lat="44.50044" lon="5.67902">
        <ele>1050.4</ele>
        <time>2018-11-27T12:07:12Z</time>
      </trkpt>
      <trkpt lat="44.50048" lon="5.67879">
        <ele>1048.57</ele>
        <time>2018-11-27T12:07:22Z</time>
      </trkpt>
      <trkpt lat="44.50052" lon="5.67855">
        <ele>1046.35</ele>
        <time>2018-11-27T12:07:33Z</time>
      </trkpt>
      <trkpt lat="44.50054" lon="5.67829">
        <ele>1045.58</ele>
        <time>2018-11-27T12:07:44Z</time>
      </trkpt>
      <trkpt lat="44.50053" lon="5.67812">
        <ele>1045.52</ele>
        <time>2018-11-27T12:07:55Z</time>
      </trkpt>
      <trkpt lat="44.50058" lon="5.678">
        <ele>1045.11</ele>
        <time>2018-11-27T12:08:06Z</time>
      </trkpt>
      <trkpt lat="44.50064" lon="5.6778">
        <ele>1044.72</ele>
        <time>2018-11-27T12:08:18Z</time>
      </trkpt>
      <trkpt lat="44.50064" lon="5.67764">
        <ele>1045.39</ele>
        <time>2018-11-27T12:08:35Z</time>
      </trkpt>
      <trkpt lat="44.50065" lon="5.67739">
        <ele>1047.27</ele>
        <time>2018-11-27T12:08:51Z</time>
      </trkpt>
      <trkpt lat="44.50068" lon="5.67724">
        <ele>1048.96</ele>
        <time>2018-11-27T12:09:04Z</time>
      </trkpt>
      <trkpt lat="44.50072" lon="5.67715">
        <ele>1049.02</ele>
        <time>2018-11-27T12:09:10Z</time>
      </trkpt>
      <trkpt lat="44.50079" lon="5.67704">
        <ele>1050.3</ele>
        <time>2018-11-27T12:09:21Z</time>
      </trkpt>
      <trkpt lat="44.50091" lon="5.67704">
        <ele>1052.31</ele>
        <time>2018-11-27T12:09:37Z</time>
      </trkpt>
      <trkpt lat="44.50107" lon="5.67708">
        <ele>1051.72</ele>
        <time>2018-11-27T12:09:51Z</time>
      </trkpt>
      <trkpt lat="44.50121" lon="5.67701">
        <ele>1050.67</ele>
        <time>2018-11-27T12:09:57Z</time>
      </trkpt>
      <trkpt lat="44.50127" lon="5.67686">
        <ele>1049.67</ele>
        <time>2018-11-27T12:10:01Z</time>
      </trkpt>
      <trkpt lat="44.50129" lon="5.67679">
        <ele>1049.26</ele>
        <time>2018-11-27T12:10:03Z</time>
      </trkpt>
      <trkpt lat="44.50146" lon="5.67647">
        <ele>1046.18</ele>
        <time>2018-11-27T12:10:13Z</time>
      </trkpt>
      <trkpt lat="44.50156" lon="5.67633">
        <ele>1043.71</ele>
        <time>2018-11-27T12:10:20Z</time>
      </trkpt>
      <trkpt lat="44.50159" lon="5.67635">
        <ele>1043.03</ele>
        <time>2018-11-27T12:10:23Z</time>
      </trkpt>
      <trkpt lat="44.50165" lon="5.67644">
        <ele>1041.59</ele>
        <time>2018-11-27T12:10:37Z</time>
      </trkpt>
      <trkpt lat="44.50165" lon="5.67644">
        <ele>1041.23</ele>
        <time>2018-11-27T12:10:57Z</time>
      </trkpt>
      <trkpt lat="44.50168" lon="5.67645">
        <ele>1040.59</ele>
        <time>2018-11-27T12:11:39Z</time>
      </trkpt>
      <trkpt lat="44.50167" lon="5.67645">
        <ele>1039.55</ele>
        <time>2018-11-27T12:12:34Z</time>
      </trkpt>
      <trkpt lat="44.50171" lon="5.67647">
        <ele>1040.4</ele>
        <time>2018-11-27T12:13:22Z</time>
      </trkpt>
      <trkpt lat="44.50172" lon="5.67648">
        <ele>1040.46</ele>
        <time>2018-11-27T12:14:15Z</time>
      </trkpt>
      <trkpt lat="44.50171" lon="5.6765">
        <ele>1041.89</ele>
        <time>2018-11-27T12:15:53Z</time>
      </trkpt>
      <trkpt lat="44.5017" lon="5.67651">
        <ele>1042.48</ele>
        <time>2018-11-27T12:17:02Z</time>
      </trkpt>
      <trkpt lat="44.50169" lon="5.67647">
        <ele>1041.15</ele>
        <time>2018-11-27T12:18:16Z</time>
      </trkpt>
      <trkpt lat="44.5017" lon="5.67646">
        <ele>1041.93</ele>
        <time>2018-11-27T12:19:42Z</time>
      </trkpt>
      <trkpt lat="44.50171" lon="5.67648">
        <ele>1039.72</ele>
        <time>2018-11-27T12:20:47Z</time>
      </trkpt>
      <trkpt lat="44.50172" lon="5.67648">
        <ele>1042.88</ele>
        <time>2018-11-27T12:21:15Z</time>
      </trkpt>
      <trkpt lat="44.50171" lon="5.67648">
        <ele>1044.34</ele>
        <time>2018-11-27T12:22:58Z</time>
      </trkpt>
      <trkpt lat="44.5017" lon="5.67644">
        <ele>1042.43</ele>
        <time>2018-11-27T12:24:04Z</time>
      </trkpt>
      <trkpt lat="44.50171" lon="5.67646">
        <ele>1042.72</ele>
        <time>2018-11-27T12:25:33Z</time>
      </trkpt>
      <trkpt lat="44.50174" lon="5.67649">
        <ele>1042.87</ele>
        <time>2018-11-27T12:26:45Z</time>
      </trkpt>
      <trkpt lat="44.50172" lon="5.67648">
        <ele>1042.25</ele>
        <time>2018-11-27T12:27:37Z</time>
      </trkpt>
      <trkpt lat="44.50169" lon="5.67653">
        <ele>1045.28</ele>
        <time>2018-11-27T12:28:18Z</time>
      </trkpt>
      <trkpt lat="44.5017" lon="5.67655">
        <ele>1043.3</ele>
        <time>2018-11-27T12:29:16Z</time>
      </trkpt>
      <trkpt lat="44.50169" lon="5.67656">
        <ele>1044.29</ele>
        <time>2018-11-27T12:30:24Z</time>
      </trkpt>
      <trkpt lat="44.50165" lon="5.67661">
        <ele>1046.11</ele>
        <time>2018-11-27T12:31:18Z</time>
      </trkpt>
      <trkpt lat="44.5017" lon="5.67656">
        <ele>1046.68</ele>
        <time>2018-11-27T12:32:19Z</time>
      </trkpt>
      <trkpt lat="44.50169" lon="5.67653">
        <ele>1044.57</ele>
        <time>2018-11-27T12:33:28Z</time>
      </trkpt>
      <trkpt lat="44.50168" lon="5.6765">
        <ele>1043.26</ele>
        <time>2018-11-27T12:34:30Z</time>
      </trkpt>
      <trkpt lat="44.50169" lon="5.67651">
        <ele>1044.94</ele>
        <time>2018-11-27T12:35:35Z</time>
      </trkpt>
      <trkpt lat="44.5017" lon="5.67653">
        <ele>1044.24</ele>
        <time>2018-11-27T12:36:17Z</time>
      </trkpt>
      <trkpt lat="44.50171" lon="5.6765">
        <ele>1047.24</ele>
        <time>2018-11-27T12:36:41Z</time>
      </trkpt>
      <trkpt lat="44.50168" lon="5.67645">
        <ele>1047.31</ele>
        <time>2018-11-27T12:37:42Z</time>
      </trkpt>
      <trkpt lat="44.50172" lon="5.67649">
        <ele>1044.82</ele>
        <time>2018-11-27T12:38:08Z</time>
      </trkpt>
      <trkpt lat="44.50174" lon="5.67647">
        <ele>1046.82</ele>
        <time>2018-11-27T12:38:23Z</time>
      </trkpt>
      <trkpt lat="44.50174" lon="5.67642">
        <ele>1048.7</ele>
        <time>2018-11-27T12:38:38Z</time>
      </trkpt>
      <trkpt lat="44.50173" lon="5.67646">
        <ele>1048.05</ele>
        <time>2018-11-27T12:39:03Z</time>
      </trkpt>
      <trkpt lat="44.50173" lon="5.67646">
        <ele>1048.08</ele>
        <time>2018-11-27T12:39:22Z</time>
      </trkpt>
      <trkpt lat="44.50176" lon="5.67648">
        <ele>1046.88</ele>
        <time>2018-11-27T12:39:37Z</time>
      </trkpt>
      <trkpt lat="44.50198" lon="5.67659">
        <ele>1043.26</ele>
        <time>2018-11-27T12:39:51Z</time>
      </trkpt>
      <trkpt lat="44.50208" lon="5.67662">
        <ele>1040.12</ele>
        <time>2018-11-27T12:39:56Z</time>
      </trkpt>
      <trkpt lat="44.50218" lon="5.6767">
        <ele>1036.31</ele>
        <time>2018-11-27T12:40:00Z</time>
      </trkpt>
      <trkpt lat="44.50233" lon="5.6768">
        <ele>1032.9</ele>
        <time>2018-11-27T12:40:04Z</time>
      </trkpt>
      <trkpt lat="44.50242" lon="5.67683">
        <ele>1029.68</ele>
        <time>2018-11-27T12:40:08Z</time>
      </trkpt>
      <trkpt lat="44.50246" lon="5.67683">
        <ele>1028.15</ele>
        <time>2018-11-27T12:40:11Z</time>
      </trkpt>
      <trkpt lat="44.50248" lon="5.67682">
        <ele>1027.15</ele>
        <time>2018-11-27T12:40:16Z</time>
      </trkpt>
      <trkpt lat="44.50267" lon="5.67679">
        <ele>1024.78</ele>
        <time>2018-11-27T12:40:25Z</time>
      </trkpt>
      <trkpt lat="44.50274" lon="5.67683">
        <ele>1022.35</ele>
        <time>2018-11-27T12:40:37Z</time>
      </trkpt>
      <trkpt lat="44.50286" lon="5.67691">
        <ele>1021.44</ele>
        <time>2018-11-27T12:40:43Z</time>
      </trkpt>
      <trkpt lat="44.50311" lon="5.67716">
        <ele>1018.25</ele>
        <time>2018-11-27T12:40:51Z</time>
      </trkpt>
      <trkpt lat="44.50324" lon="5.67732">
        <ele>1016.02</ele>
        <time>2018-11-27T12:41:03Z</time>
      </trkpt>
      <trkpt lat="44.5033" lon="5.67739">
        <ele>1014.3</ele>
        <time>2018-11-27T12:41:10Z</time>
      </trkpt>
      <trkpt lat="44.50342" lon="5.67757">
        <ele>1010.73</ele>
        <time>2018-11-27T12:41:19Z</time>
      </trkpt>
      <trkpt lat="44.50345" lon="5.67763">
        <ele>1007.67</ele>
        <time>2018-11-27T12:41:30Z</time>
      </trkpt>
      <trkpt lat="44.50346" lon="5.67768">
        <ele>1006.96</ele>
        <time>2018-11-27T12:41:40Z</time>
      </trkpt>
      <trkpt lat="44.50349" lon="5.67777">
        <ele>1005.41</ele>
        <time>2018-11-27T12:41:48Z</time>
      </trkpt>
      <trkpt lat="44.50351" lon="5.6778">
        <ele>1004.71</ele>
        <time>2018-11-27T12:41:51Z</time>
      </trkpt>
      <trkpt lat="44.50359" lon="5.67784">
        <ele>1002.49</ele>
        <time>2018-11-27T12:42:07Z</time>
      </trkpt>
      <trkpt lat="44.50362" lon="5.67785">
        <ele>1002.25</ele>
        <time>2018-11-27T12:42:44Z</time>
      </trkpt>
      <trkpt lat="44.50367" lon="5.67792">
        <ele>1001.7</ele>
        <time>2018-11-27T12:42:55Z</time>
      </trkpt>
      <trkpt lat="44.5037" lon="5.67795">
        <ele>1001.3</ele>
        <time>2018-11-27T12:43:01Z</time>
      </trkpt>
      <trkpt lat="44.50379" lon="5.67809">
        <ele>999.27</ele>
        <time>2018-11-27T12:43:09Z</time>
      </trkpt>
      <trkpt lat="44.50382" lon="5.67816">
        <ele>996.81</ele>
        <time>2018-11-27T12:43:21Z</time>
      </trkpt>
      <trkpt lat="44.50384" lon="5.67834">
        <ele>993.81</ele>
        <time>2018-11-27T12:43:37Z</time>
      </trkpt>
      <trkpt lat="44.50385" lon="5.67844">
        <ele>991.39</ele>
        <time>2018-11-27T12:43:49Z</time>
      </trkpt>
      <trkpt lat="44.50382" lon="5.67859">
        <ele>988.02</ele>
        <time>2018-11-27T12:44:05Z</time>
      </trkpt>
      <trkpt lat="44.50382" lon="5.67863">
        <ele>987.42</ele>
        <time>2018-11-27T12:44:08Z</time>
      </trkpt>
      <trkpt lat="44.50384" lon="5.67881">
        <ele>985.15</ele>
        <time>2018-11-27T12:44:24Z</time>
      </trkpt>
      <trkpt lat="44.50387" lon="5.67878">
        <ele>985.19</ele>
        <time>2018-11-27T12:44:38Z</time>
      </trkpt>
      <trkpt lat="44.50385" lon="5.67882">
        <ele>985.39</ele>
        <time>2018-11-27T12:44:50Z</time>
      </trkpt>
      <trkpt lat="44.5038" lon="5.67889">
        <ele>984.88</ele>
        <time>2018-11-27T12:45:08Z</time>
      </trkpt>
      <trkpt lat="44.50381" lon="5.67893">
        <ele>984.9</ele>
        <time>2018-11-27T12:45:27Z</time>
      </trkpt>
      <trkpt lat="44.50379" lon="5.67894">
        <ele>983.94</ele>
        <time>2018-11-27T12:45:50Z</time>
      </trkpt>
      <trkpt lat="44.50378" lon="5.67896">
        <ele>983.97</ele>
        <time>2018-11-27T12:45:52Z</time>
      </trkpt>
      <trkpt lat="44.50376" lon="5.67905">
        <ele>983.93</ele>
        <time>2018-11-27T12:45:56Z</time>
      </trkpt>
      <trkpt lat="44.5036" lon="5.67938">
        <ele>981.98</ele>
        <time>2018-11-27T12:46:06Z</time>
      </trkpt>
      <trkpt lat="44.50341" lon="5.67988">
        <ele>978.64</ele>
        <time>2018-11-27T12:46:17Z</time>
      </trkpt>
      <trkpt lat="44.50341" lon="5.67992">
        <ele>978.19</ele>
        <time>2018-11-27T12:46:18Z</time>
      </trkpt>
      <trkpt lat="44.50346" lon="5.68003">
        <ele>976.44</ele>
        <time>2018-11-27T12:46:22Z</time>
      </trkpt>
      <trkpt lat="44.50358" lon="5.68011">
        <ele>974.82</ele>
        <time>2018-11-27T12:46:26Z</time>
      </trkpt>
      <trkpt lat="44.5036" lon="5.68056">
        <ele>971.39</ele>
        <time>2018-11-27T12:46:36Z</time>
      </trkpt>
      <trkpt lat="44.50356" lon="5.68101">
        <ele>970.08</ele>
        <time>2018-11-27T12:46:49Z</time>
      </trkpt>
      <trkpt lat="44.50358" lon="5.68132">
        <ele>970.71</ele>
        <time>2018-11-27T12:46:59Z</time>
      </trkpt>
      <trkpt lat="44.50367" lon="5.68167">
        <ele>972.39</ele>
        <time>2018-11-27T12:47:10Z</time>
      </trkpt>
      <trkpt lat="44.50397" lon="5.68205">
        <ele>970.35</ele>
        <time>2018-11-27T12:47:21Z</time>
      </trkpt>
      <trkpt lat="44.50401" lon="5.68208">
        <ele>970.07</ele>
        <time>2018-11-27T12:47:22Z</time>
      </trkpt>
      <trkpt lat="44.50423" lon="5.68228">
        <ele>968.72</ele>
        <time>2018-11-27T12:47:28Z</time>
      </trkpt>
      <trkpt lat="44.50435" lon="5.68244">
        <ele>968.42</ele>
        <time>2018-11-27T12:47:36Z</time>
      </trkpt>
      <trkpt lat="44.50442" lon="5.68253">
        <ele>969.65</ele>
        <time>2018-11-27T12:47:50Z</time>
      </trkpt>
      <trkpt lat="44.50445" lon="5.68249">
        <ele>969.14</ele>
        <time>2018-11-27T12:48:03Z</time>
      </trkpt>
      <trkpt lat="44.5045" lon="5.68247">
        <ele>969.04</ele>
        <time>2018-11-27T12:48:07Z</time>
      </trkpt>
      <trkpt lat="44.50479" lon="5.68254">
        <ele>969.52</ele>
        <time>2018-11-27T12:48:22Z</time>
      </trkpt>
      <trkpt lat="44.5048" lon="5.68255">
        <ele>969.58</ele>
        <time>2018-11-27T12:48:23Z</time>
      </trkpt>
      <trkpt lat="44.50487" lon="5.68264">
        <ele>969.76</ele>
        <time>2018-11-27T12:48:27Z</time>
      </trkpt>
      <trkpt lat="44.50509" lon="5.68281">
        <ele>969.81</ele>
        <time>2018-11-27T12:48:41Z</time>
      </trkpt>
      <trkpt lat="44.50525" lon="5.68306">
        <ele>968.62</ele>
        <time>2018-11-27T12:48:50Z</time>
      </trkpt>
      <trkpt lat="44.50533" lon="5.68311">
        <ele>967.97</ele>
        <time>2018-11-27T12:48:54Z</time>
      </trkpt>
      <trkpt lat="44.50536" lon="5.68314">
        <ele>967.71</ele>
        <time>2018-11-27T12:48:56Z</time>
      </trkpt>
      <trkpt lat="44.50542" lon="5.68325">
        <ele>967.34</ele>
        <time>2018-11-27T12:49:01Z</time>
      </trkpt>
      <trkpt lat="44.50558" lon="5.68358">
        <ele>965.45</ele>
        <time>2018-11-27T12:49:14Z</time>
      </trkpt>
      <trkpt lat="44.50568" lon="5.68367">
        <ele>964.57</ele>
        <time>2018-11-27T12:49:18Z</time>
      </trkpt>
      <trkpt lat="44.50567" lon="5.68387">
        <ele>963.18</ele>
        <time>2018-11-27T12:49:24Z</time>
      </trkpt>
      <trkpt lat="44.50563" lon="5.68419">
        <ele>959.37</ele>
        <time>2018-11-27T12:49:32Z</time>
      </trkpt>
      <trkpt lat="44.5057" lon="5.68444">
        <ele>955.78</ele>
        <time>2018-11-27T12:49:38Z</time>
      </trkpt>
      <trkpt lat="44.50583" lon="5.68459">
        <ele>952.53</ele>
        <time>2018-11-27T12:49:43Z</time>
      </trkpt>
      <trkpt lat="44.50595" lon="5.68478">
        <ele>949.46</ele>
        <time>2018-11-27T12:49:48Z</time>
      </trkpt>
      <trkpt lat="44.50601" lon="5.68495">
        <ele>947.96</ele>
        <time>2018-11-27T12:49:53Z</time>
      </trkpt>
      <trkpt lat="44.50594" lon="5.68514">
        <ele>946.54</ele>
        <time>2018-11-27T12:49:58Z</time>
      </trkpt>
      <trkpt lat="44.50595" lon="5.68547">
        <ele>942.87</ele>
        <time>2018-11-27T12:50:06Z</time>
      </trkpt>
      <trkpt lat="44.506" lon="5.68554">
        <ele>940.97</ele>
        <time>2018-11-27T12:50:09Z</time>
      </trkpt>
      <trkpt lat="44.5061" lon="5.68554">
        <ele>938.28</ele>
        <time>2018-11-27T12:50:13Z</time>
      </trkpt>
      <trkpt lat="44.5062" lon="5.6855">
        <ele>937.38</ele>
        <time>2018-11-27T12:50:15Z</time>
      </trkpt>
      <trkpt lat="44.50636" lon="5.68548">
        <ele>934.17</ele>
        <time>2018-11-27T12:50:20Z</time>
      </trkpt>
      <trkpt lat="44.50646" lon="5.68571">
        <ele>931.71</ele>
        <time>2018-11-27T12:50:31Z</time>
      </trkpt>
      <trkpt lat="44.50651" lon="5.68589">
        <ele>930.74</ele>
        <time>2018-11-27T12:50:51Z</time>
      </trkpt>
      <trkpt lat="44.5066" lon="5.68634">
        <ele>927.57</ele>
        <time>2018-11-27T12:51:01Z</time>
      </trkpt>
      <trkpt lat="44.50657" lon="5.68643">
        <ele>925.5</ele>
        <time>2018-11-27T12:51:03Z</time>
      </trkpt>
      <trkpt lat="44.50645" lon="5.68666">
        <ele>921.78</ele>
        <time>2018-11-27T12:51:08Z</time>
      </trkpt>
      <trkpt lat="44.50651" lon="5.68679">
        <ele>917.53</ele>
        <time>2018-11-27T12:51:14Z</time>
      </trkpt>
      <trkpt lat="44.50664" lon="5.68673">
        <ele>914.33</ele>
        <time>2018-11-27T12:51:19Z</time>
      </trkpt>
      <trkpt lat="44.50679" lon="5.68665">
        <ele>910.46</ele>
        <time>2018-11-27T12:51:26Z</time>
      </trkpt>
      <trkpt lat="44.50688" lon="5.68661">
        <ele>907.18</ele>
        <time>2018-11-27T12:51:31Z</time>
      </trkpt>
      <trkpt lat="44.50702" lon="5.68656">
        <ele>904.16</ele>
        <time>2018-11-27T12:51:37Z</time>
      </trkpt>
      <trkpt lat="44.50718" lon="5.6866">
        <ele>900.94</ele>
        <time>2018-11-27T12:51:44Z</time>
      </trkpt>
      <trkpt lat="44.50731" lon="5.68667">
        <ele>897.65</ele>
        <time>2018-11-27T12:51:50Z</time>
      </trkpt>
      <trkpt lat="44.50741" lon="5.68677">
        <ele>895</ele>
        <time>2018-11-27T12:51:55Z</time>
      </trkpt>
      <trkpt lat="44.50747" lon="5.68703">
        <ele>891.6</ele>
        <time>2018-11-27T12:52:03Z</time>
      </trkpt>
      <trkpt lat="44.50751" lon="5.68717">
        <ele>887.88</ele>
        <time>2018-11-27T12:52:07Z</time>
      </trkpt>
      <trkpt lat="44.50753" lon="5.68728">
        <ele>884.75</ele>
        <time>2018-11-27T12:52:10Z</time>
      </trkpt>
      <trkpt lat="44.50761" lon="5.68742">
        <ele>881.35</ele>
        <time>2018-11-27T12:52:14Z</time>
      </trkpt>
      <trkpt lat="44.50773" lon="5.68758">
        <ele>877</ele>
        <time>2018-11-27T12:52:19Z</time>
      </trkpt>
      <trkpt lat="44.50775" lon="5.68761">
        <ele>876.07</ele>
        <time>2018-11-27T12:52:20Z</time>
      </trkpt>
      <trkpt lat="44.50785" lon="5.68772">
        <ele>872.04</ele>
        <time>2018-11-27T12:52:24Z</time>
      </trkpt>
      <trkpt lat="44.50794" lon="5.68781">
        <ele>868.7</ele>
        <time>2018-11-27T12:52:28Z</time>
      </trkpt>
      <trkpt lat="44.50797" lon="5.68784">
        <ele>867.1</ele>
        <time>2018-11-27T12:52:30Z</time>
      </trkpt>
      <trkpt lat="44.50806" lon="5.6879">
        <ele>862.73</ele>
        <time>2018-11-27T12:52:36Z</time>
      </trkpt>
      <trkpt lat="44.50818" lon="5.688">
        <ele>859.33</ele>
        <time>2018-11-27T12:52:42Z</time>
      </trkpt>
      <trkpt lat="44.50823" lon="5.68802">
        <ele>858.1</ele>
        <time>2018-11-27T12:52:44Z</time>
      </trkpt>
      <trkpt lat="44.50826" lon="5.68803">
        <ele>856.81</ele>
        <time>2018-11-27T12:52:45Z</time>
      </trkpt>
      <trkpt lat="44.5085" lon="5.6881">
        <ele>852.93</ele>
        <time>2018-11-27T12:52:52Z</time>
      </trkpt>
      <trkpt lat="44.50854" lon="5.68812">
        <ele>852.37</ele>
        <time>2018-11-27T12:52:53Z</time>
      </trkpt>
      <trkpt lat="44.50879" lon="5.68825">
        <ele>848.57</ele>
        <time>2018-11-27T12:52:59Z</time>
      </trkpt>
      <trkpt lat="44.50883" lon="5.68828">
        <ele>848.06</ele>
        <time>2018-11-27T12:53:00Z</time>
      </trkpt>
      <trkpt lat="44.50902" lon="5.68835">
        <ele>845.74</ele>
        <time>2018-11-27T12:53:04Z</time>
      </trkpt>
      <trkpt lat="44.50917" lon="5.68844">
        <ele>843.88</ele>
        <time>2018-11-27T12:53:08Z</time>
      </trkpt>
      <trkpt lat="44.50939" lon="5.68881">
        <ele>840.76</ele>
        <time>2018-11-27T12:53:17Z</time>
      </trkpt>
      <trkpt lat="44.50947" lon="5.68919">
        <ele>837.25</ele>
        <time>2018-11-27T12:53:25Z</time>
      </trkpt>
      <trkpt lat="44.50951" lon="5.68934">
        <ele>834.13</ele>
        <time>2018-11-27T12:53:32Z</time>
      </trkpt>
      <trkpt lat="44.50951" lon="5.68934">
        <ele>831.1</ele>
        <time>2018-11-27T12:54:02Z</time>
      </trkpt>
      <trkpt lat="44.50952" lon="5.68941">
        <ele>831.7</ele>
        <time>2018-11-27T12:54:35Z</time>
      </trkpt>
      <trkpt lat="44.50968" lon="5.68964">
        <ele>829.73</ele>
        <time>2018-11-27T12:54:42Z</time>
      </trkpt>
      <trkpt lat="44.50977" lon="5.68978">
        <ele>828.19</ele>
        <time>2018-11-27T12:54:45Z</time>
      </trkpt>
      <trkpt lat="44.50985" lon="5.68993">
        <ele>826.38</ele>
        <time>2018-11-27T12:54:48Z</time>
      </trkpt>
      <trkpt lat="44.50998" lon="5.69019">
        <ele>823.26</ele>
        <time>2018-11-27T12:54:52Z</time>
      </trkpt>
      <trkpt lat="44.51015" lon="5.69046">
        <ele>819.2</ele>
        <time>2018-11-27T12:54:57Z</time>
      </trkpt>
      <trkpt lat="44.51033" lon="5.69075">
        <ele>816.04</ele>
        <time>2018-11-27T12:55:03Z</time>
      </trkpt>
      <trkpt lat="44.51036" lon="5.69079">
        <ele>815.53</ele>
        <time>2018-11-27T12:55:04Z</time>
      </trkpt>
      <trkpt lat="44.51043" lon="5.69104">
        <ele>813.23</ele>
        <time>2018-11-27T12:55:09Z</time>
      </trkpt>
      <trkpt lat="44.51041" lon="5.69115">
        <ele>812.47</ele>
        <time>2018-11-27T12:55:11Z</time>
      </trkpt>
      <trkpt lat="44.51038" lon="5.69143">
        <ele>810.5</ele>
        <time>2018-11-27T12:55:15Z</time>
      </trkpt>
      <trkpt lat="44.51029" lon="5.69174">
        <ele>807.17</ele>
        <time>2018-11-27T12:55:21Z</time>
      </trkpt>
      <trkpt lat="44.51002" lon="5.69204">
        <ele>804.22</ele>
        <time>2018-11-27T12:55:29Z</time>
      </trkpt>
      <trkpt lat="44.50982" lon="5.69224">
        <ele>801.71</ele>
        <time>2018-11-27T12:55:34Z</time>
      </trkpt>
      <trkpt lat="44.50968" lon="5.69247">
        <ele>798.88</ele>
        <time>2018-11-27T12:55:40Z</time>
      </trkpt>
      <trkpt lat="44.50973" lon="5.69274">
        <ele>796.44</ele>
        <time>2018-11-27T12:55:51Z</time>
      </trkpt>
      <trkpt lat="44.50975" lon="5.69278">
        <ele>796.5</ele>
        <time>2018-11-27T12:55:53Z</time>
      </trkpt>
      <trkpt lat="44.50981" lon="5.6929">
        <ele>796.37</ele>
        <time>2018-11-27T12:56:07Z</time>
      </trkpt>
      <trkpt lat="44.50984" lon="5.69295">
        <ele>796.3</ele>
        <time>2018-11-27T12:56:18Z</time>
      </trkpt>
      <trkpt lat="44.5101" lon="5.69321">
        <ele>795.84</ele>
        <time>2018-11-27T12:56:27Z</time>
      </trkpt>
      <trkpt lat="44.5103" lon="5.69359">
        <ele>794.24</ele>
        <time>2018-11-27T12:56:33Z</time>
      </trkpt>
      <trkpt lat="44.51048" lon="5.6939">
        <ele>792.31</ele>
        <time>2018-11-27T12:56:38Z</time>
      </trkpt>
      <trkpt lat="44.51097" lon="5.6944">
        <ele>788.78</ele>
        <time>2018-11-27T12:56:46Z</time>
      </trkpt>
      <trkpt lat="44.51129" lon="5.69479">
        <ele>785.71</ele>
        <time>2018-11-27T12:56:52Z</time>
      </trkpt>
      <trkpt lat="44.51155" lon="5.69511">
        <ele>782.2</ele>
        <time>2018-11-27T12:56:57Z</time>
      </trkpt>
      <trkpt lat="44.51163" lon="5.69522">
        <ele>780.73</ele>
        <time>2018-11-27T12:56:59Z</time>
      </trkpt>
      <trkpt lat="44.51172" lon="5.6954">
        <ele>778.34</ele>
        <time>2018-11-27T12:57:03Z</time>
      </trkpt>
      <trkpt lat="44.51174" lon="5.69553">
        <ele>774.42</ele>
        <time>2018-11-27T12:57:10Z</time>
      </trkpt>
      <trkpt lat="44.51174" lon="5.69553">
        <ele>773.48</ele>
        <time>2018-11-27T12:57:39Z</time>
      </trkpt>
      <trkpt lat="44.51174" lon="5.69553">
        <ele>773.9</ele>
        <time>2018-11-27T12:58:05Z</time>
      </trkpt>
      <trkpt lat="44.5117" lon="5.69554">
        <ele>772.9</ele>
        <time>2018-11-27T12:58:45Z</time>
      </trkpt>
      <trkpt lat="44.51169" lon="5.69552">
        <ele>770.39</ele>
        <time>2018-11-27T12:59:20Z</time>
      </trkpt>
      <trkpt lat="44.5117" lon="5.69553">
        <ele>770.51</ele>
        <time>2018-11-27T13:00:54Z</time>
      </trkpt>
      <trkpt lat="44.51171" lon="5.69559">
        <ele>770.77</ele>
        <time>2018-11-27T13:01:00Z</time>
      </trkpt>
      <trkpt lat="44.51199" lon="5.6956">
        <ele>769.45</ele>
        <time>2018-11-27T13:01:12Z</time>
      </trkpt>
      <trkpt lat="44.51242" lon="5.69518">
        <ele>766.4</ele>
        <time>2018-11-27T13:01:25Z</time>
      </trkpt>
      <trkpt lat="44.51248" lon="5.69506">
        <ele>765.89</ele>
        <time>2018-11-27T13:01:27Z</time>
      </trkpt>
      <trkpt lat="44.51252" lon="5.69501">
        <ele>765.67</ele>
        <time>2018-11-27T13:01:28Z</time>
      </trkpt>
      <trkpt lat="44.51257" lon="5.69497">
        <ele>765.46</ele>
        <time>2018-11-27T13:01:29Z</time>
      </trkpt>
      <trkpt lat="44.51262" lon="5.69496">
        <ele>765.12</ele>
        <time>2018-11-27T13:01:30Z</time>
      </trkpt>
      <trkpt lat="44.51267" lon="5.69496">
        <ele>764.63</ele>
        <time>2018-11-27T13:01:31Z</time>
      </trkpt>
      <trkpt lat="44.51272" lon="5.69497">
        <ele>764.07</ele>
        <time>2018-11-27T13:01:32Z</time>
      </trkpt>
      <trkpt lat="44.51277" lon="5.69499">
        <ele>763.57</ele>
        <time>2018-11-27T13:01:33Z</time>
      </trkpt>
      <trkpt lat="44.51319" lon="5.69518">
        <ele>760.26</ele>
        <time>2018-11-27T13:01:43Z</time>
      </trkpt>
      <trkpt lat="44.51379" lon="5.69541">
        <ele>757.68</ele>
        <time>2018-11-27T13:01:58Z</time>
      </trkpt>
      <trkpt lat="44.51433" lon="5.69562">
        <ele>757.19</ele>
        <time>2018-11-27T13:02:14Z</time>
      </trkpt>
      <trkpt lat="44.51494" lon="5.69586">
        <ele>755.85</ele>
        <time>2018-11-27T13:02:29Z</time>
      </trkpt>
      <trkpt lat="44.51498" lon="5.69586">
        <ele>755.78</ele>
        <time>2018-11-27T13:02:30Z</time>
      </trkpt>
      <trkpt lat="44.51502" lon="5.69585">
        <ele>755.69</ele>
        <time>2018-11-27T13:02:31Z</time>
      </trkpt>
      <trkpt lat="44.51505" lon="5.69584">
        <ele>755.56</ele>
        <time>2018-11-27T13:02:32Z</time>
      </trkpt>
      <trkpt lat="44.51508" lon="5.69583">
        <ele>755.43</ele>
        <time>2018-11-27T13:02:33Z</time>
      </trkpt>
      <trkpt lat="44.51511" lon="5.69582">
        <ele>755.32</ele>
        <time>2018-11-27T13:02:34Z</time>
      </trkpt>
      <trkpt lat="44.51513" lon="5.69582">
        <ele>755.24</ele>
        <time>2018-11-27T13:02:35Z</time>
      </trkpt>
      <trkpt lat="44.51535" lon="5.69567">
        <ele>755.5</ele>
        <time>2018-11-27T13:02:44Z</time>
      </trkpt>
      <trkpt lat="44.51553" lon="5.69545">
        <ele>755.76</ele>
        <time>2018-11-27T13:02:49Z</time>
      </trkpt>
      <trkpt lat="44.51561" lon="5.69537">
        <ele>755.85</ele>
        <time>2018-11-27T13:02:51Z</time>
      </trkpt>
      <trkpt lat="44.51566" lon="5.69534">
        <ele>755.89</ele>
        <time>2018-11-27T13:02:52Z</time>
      </trkpt>
      <trkpt lat="44.5157" lon="5.69533">
        <ele>755.96</ele>
        <time>2018-11-27T13:02:53Z</time>
      </trkpt>
      <trkpt lat="44.51575" lon="5.69532">
        <ele>756.04</ele>
        <time>2018-11-27T13:02:54Z</time>
      </trkpt>
      <trkpt lat="44.51579" lon="5.69532">
        <ele>756.12</ele>
        <time>2018-11-27T13:02:55Z</time>
      </trkpt>
      <trkpt lat="44.51583" lon="5.69534">
        <ele>756.17</ele>
        <time>2018-11-27T13:02:56Z</time>
      </trkpt>
      <trkpt lat="44.51587" lon="5.69536">
        <ele>756.21</ele>
        <time>2018-11-27T13:02:57Z</time>
      </trkpt>
      <trkpt lat="44.51591" lon="5.69538">
        <ele>756.24</ele>
        <time>2018-11-27T13:02:58Z</time>
      </trkpt>
      <trkpt lat="44.51633" lon="5.69571">
        <ele>756.57</ele>
        <time>2018-11-27T13:03:11Z</time>
      </trkpt>
      <trkpt lat="44.51667" lon="5.69619">
        <ele>756.98</ele>
        <time>2018-11-27T13:03:25Z</time>
      </trkpt>
      <trkpt lat="44.51683" lon="5.6967">
        <ele>757.66</ele>
        <time>2018-11-27T13:03:37Z</time>
      </trkpt>
      <trkpt lat="44.5171" lon="5.69714">
        <ele>757.68</ele>
        <time>2018-11-27T13:03:49Z</time>
      </trkpt>
      <trkpt lat="44.51744" lon="5.69751">
        <ele>757.74</ele>
        <time>2018-11-27T13:04:03Z</time>
      </trkpt>
      <trkpt lat="44.51776" lon="5.69777">
        <ele>758.91</ele>
        <time>2018-11-27T13:04:17Z</time>
      </trkpt>
      <trkpt lat="44.51792" lon="5.69815">
        <ele>760.32</ele>
        <time>2018-11-27T13:04:29Z</time>
      </trkpt>
      <trkpt lat="44.51778" lon="5.69855">
        <ele>762.47</ele>
        <time>2018-11-27T13:04:42Z</time>
      </trkpt>
      <trkpt lat="44.51721" lon="5.69897">
        <ele>763.26</ele>
        <time>2018-11-27T13:05:00Z</time>
      </trkpt>
      <trkpt lat="44.51714" lon="5.69933">
        <ele>763.72</ele>
        <time>2018-11-27T13:05:09Z</time>
      </trkpt>
      <trkpt lat="44.51715" lon="5.69942">
        <ele>763.09</ele>
        <time>2018-11-27T13:05:19Z</time>
      </trkpt>
      <trkpt lat="44.51712" lon="5.69947">
        <ele>763.41</ele>
        <time>2018-11-27T13:05:31Z</time>
      </trkpt>
      <trkpt lat="44.51711" lon="5.69948">
        <ele>763.52</ele>
        <time>2018-11-27T13:05:32Z</time>
      </trkpt>
      <trkpt lat="44.51709" lon="5.69948">
        <ele>763.62</ele>
        <time>2018-11-27T13:05:33Z</time>
      </trkpt>
      <trkpt lat="44.51707" lon="5.69949">
        <ele>763.72</ele>
        <time>2018-11-27T13:05:34Z</time>
      </trkpt>
      <trkpt lat="44.51705" lon="5.69949">
        <ele>763.81</ele>
        <time>2018-11-27T13:05:35Z</time>
      </trkpt>
      <trkpt lat="44.51701" lon="5.6995">
        <ele>763.89</ele>
        <time>2018-11-27T13:05:36Z</time>
      </trkpt>
      <trkpt lat="44.51698" lon="5.69951">
        <ele>763.95</ele>
        <time>2018-11-27T13:05:37Z</time>
      </trkpt>
      <trkpt lat="44.51673" lon="5.69956">
        <ele>764.23</ele>
        <time>2018-11-27T13:05:43Z</time>
      </trkpt>
      <trkpt lat="44.51668" lon="5.69957">
        <ele>764.26</ele>
        <time>2018-11-27T13:05:44Z</time>
      </trkpt>
      <trkpt lat="44.5162" lon="5.69972">
        <ele>763.74</ele>
        <time>2018-11-27T13:05:53Z</time>
      </trkpt>
      <trkpt lat="44.51614" lon="5.69975">
        <ele>763.69</ele>
        <time>2018-11-27T13:05:54Z</time>
      </trkpt>
      <trkpt lat="44.51591" lon="5.69995">
        <ele>763.53</ele>
        <time>2018-11-27T13:05:58Z</time>
      </trkpt>
      <trkpt lat="44.51575" lon="5.70015">
        <ele>763.33</ele>
        <time>2018-11-27T13:06:01Z</time>
      </trkpt>
      <trkpt lat="44.51512" lon="5.70137">
        <ele>763.12</ele>
        <time>2018-11-27T13:06:15Z</time>
      </trkpt>
      <trkpt lat="44.51451" lon="5.70262">
        <ele>760.12</ele>
        <time>2018-11-27T13:06:29Z</time>
      </trkpt>
      <trkpt lat="44.51386" lon="5.70393">
        <ele>759.07</ele>
        <time>2018-11-27T13:06:45Z</time>
      </trkpt>
      <trkpt lat="44.51328" lon="5.70511">
        <ele>755.98</ele>
        <time>2018-11-27T13:06:57Z</time>
      </trkpt>
      <trkpt lat="44.51252" lon="5.70667">
        <ele>753.45</ele>
        <time>2018-11-27T13:07:12Z</time>
      </trkpt>
      <trkpt lat="44.51164" lon="5.70845">
        <ele>750.23</ele>
        <time>2018-11-27T13:07:30Z</time>
      </trkpt>
      <trkpt lat="44.51092" lon="5.70986">
        <ele>747.11</ele>
        <time>2018-11-27T13:07:44Z</time>
      </trkpt>
      <trkpt lat="44.51005" lon="5.71096">
        <ele>745.67</ele>
        <time>2018-11-27T13:07:58Z</time>
      </trkpt>
      <trkpt lat="44.5089" lon="5.71239">
        <ele>744.23</ele>
        <time>2018-11-27T13:08:17Z</time>
      </trkpt>
      <trkpt lat="44.50778" lon="5.71379">
        <ele>743.49</ele>
        <time>2018-11-27T13:08:35Z</time>
      </trkpt>
      <trkpt lat="44.50668" lon="5.71518">
        <ele>742.01</ele>
        <time>2018-11-27T13:08:55Z</time>
      </trkpt>
      <trkpt lat="44.50563" lon="5.7165">
        <ele>740.26</ele>
        <time>2018-11-27T13:09:14Z</time>
      </trkpt>
      <trkpt lat="44.50456" lon="5.71766">
        <ele>738.41</ele>
        <time>2018-11-27T13:09:32Z</time>
      </trkpt>
      <trkpt lat="44.50329" lon="5.71845">
        <ele>737.03</ele>
        <time>2018-11-27T13:09:49Z</time>
      </trkpt>
      <trkpt lat="44.5022" lon="5.71922">
        <ele>736.52</ele>
        <time>2018-11-27T13:10:04Z</time>
      </trkpt>
      <trkpt lat="44.50108" lon="5.72026">
        <ele>733.84</ele>
        <time>2018-11-27T13:10:19Z</time>
      </trkpt>
      <trkpt lat="44.50039" lon="5.72087">
        <ele>731.31</ele>
        <time>2018-11-27T13:10:28Z</time>
      </trkpt>
      <trkpt lat="44.49944" lon="5.72124">
        <ele>729.86</ele>
        <time>2018-11-27T13:10:40Z</time>
      </trkpt>
      <trkpt lat="44.49847" lon="5.72171">
        <ele>732.91</ele>
        <time>2018-11-27T13:10:55Z</time>
      </trkpt>
      <trkpt lat="44.49762" lon="5.72247">
        <ele>735.92</ele>
        <time>2018-11-27T13:11:10Z</time>
      </trkpt>
      <trkpt lat="44.49705" lon="5.72299">
        <ele>735.55</ele>
        <time>2018-11-27T13:11:22Z</time>
      </trkpt>
      <trkpt lat="44.49634" lon="5.72363">
        <ele>734.97</ele>
        <time>2018-11-27T13:11:39Z</time>
      </trkpt>
      <trkpt lat="44.49573" lon="5.72404">
        <ele>733.89</ele>
        <time>2018-11-27T13:11:52Z</time>
      </trkpt>
      <trkpt lat="44.49528" lon="5.72443">
        <ele>734.93</ele>
        <time>2018-11-27T13:12:03Z</time>
      </trkpt>
      <trkpt lat="44.49525" lon="5.72447">
        <ele>735.21</ele>
        <time>2018-11-27T13:12:04Z</time>
      </trkpt>
      <trkpt lat="44.49522" lon="5.72452">
        <ele>735.43</ele>
        <time>2018-11-27T13:12:05Z</time>
      </trkpt>
      <trkpt lat="44.49503" lon="5.72514">
        <ele>734.34</ele>
        <time>2018-11-27T13:12:18Z</time>
      </trkpt>
      <trkpt lat="44.49486" lon="5.72594">
        <ele>734.26</ele>
        <time>2018-11-27T13:12:30Z</time>
      </trkpt>
      <trkpt lat="44.49483" lon="5.72601">
        <ele>734.19</ele>
        <time>2018-11-27T13:12:31Z</time>
      </trkpt>
      <trkpt lat="44.49467" lon="5.72631">
        <ele>732.97</ele>
        <time>2018-11-27T13:12:35Z</time>
      </trkpt>
      <trkpt lat="44.49407" lon="5.72709">
        <ele>729.8</ele>
        <time>2018-11-27T13:12:45Z</time>
      </trkpt>
      <trkpt lat="44.49402" lon="5.72719">
        <ele>729.48</ele>
        <time>2018-11-27T13:12:46Z</time>
      </trkpt>
      <trkpt lat="44.49398" lon="5.7273">
        <ele>729.08</ele>
        <time>2018-11-27T13:12:47Z</time>
      </trkpt>
      <trkpt lat="44.4938" lon="5.72797">
        <ele>725.86</ele>
        <time>2018-11-27T13:12:53Z</time>
      </trkpt>
      <trkpt lat="44.49367" lon="5.72855">
        <ele>722.65</ele>
        <time>2018-11-27T13:13:00Z</time>
      </trkpt>
      <trkpt lat="44.49366" lon="5.7286">
        <ele>722.35</ele>
        <time>2018-11-27T13:13:01Z</time>
      </trkpt>
      <trkpt lat="44.49364" lon="5.72863">
        <ele>722.02</ele>
        <time>2018-11-27T13:13:02Z</time>
      </trkpt>
      <trkpt lat="44.49362" lon="5.72864">
        <ele>721.64</ele>
        <time>2018-11-27T13:13:03Z</time>
      </trkpt>
      <trkpt lat="44.49361" lon="5.72865">
        <ele>721.29</ele>
        <time>2018-11-27T13:13:04Z</time>
      </trkpt>
      <trkpt lat="44.49359" lon="5.72866">
        <ele>719.78</ele>
        <time>2018-11-27T13:13:11Z</time>
      </trkpt>
      <trkpt lat="44.49358" lon="5.72868">
        <ele>719.74</ele>
        <time>2018-11-27T13:13:12Z</time>
      </trkpt>
      <trkpt lat="44.49355" lon="5.72892">
        <ele>719.26</ele>
        <time>2018-11-27T13:13:29Z</time>
      </trkpt>
      <trkpt lat="44.49357" lon="5.72892">
        <ele>721</ele>
        <time>2018-11-27T13:13:53Z</time>
      </trkpt>
      <trkpt lat="44.49356" lon="5.72892">
        <ele>721.51</ele>
        <time>2018-11-27T13:14:07Z</time>
      </trkpt>
      <trkpt lat="44.49355" lon="5.72889">
        <ele>720.84</ele>
        <time>2018-11-27T13:14:31Z</time>
      </trkpt>
      <trkpt lat="44.49355" lon="5.72888">
        <ele>721.28</ele>
        <time>2018-11-27T13:15:07Z</time>
      </trkpt>
      <trkpt lat="44.49355" lon="5.72892">
        <ele>721.63</ele>
        <time>2018-11-27T13:15:35Z</time>
      </trkpt>
      <trkpt lat="44.49356" lon="5.72893">
        <ele>721.99</ele>
        <time>2018-11-27T13:16:04Z</time>
      </trkpt>
      <trkpt lat="44.49354" lon="5.72893">
        <ele>825.97</ele>
        <time>2018-11-27T13:16:22Z</time>
      </trkpt>
    </trkseg>
  </trk>
</gpx>